LXJ46A SKBO-GOBD
Flight info
| Callsign | LXJ46A |
|---|---|
| Flight time | 7h 52m |
| Altitude | 37000 |
| Route | MAVDA UW20 AUC DCT MIQ UN669 ELJEZ/M080F370 DCT 2150N DCT 2340N DCT 22N036W DCT ERNEK/N0467F370 DCT EVKAS DCT BVT DCT MOGSA DCT PIVSA |
| Aircraft | A306/H-SDE3FGHIRWY/LB1 |
Departure
| Time | 2026-04-25 12:57 |
|---|---|
| Airport | El Dorado International Airport (SKBO) |
Arrival
| Time | 2026-04-25 20:50 |
|---|---|
| Airport | Blaise Diagne International Airport (GOBD) |
| Time | Latitude | Longitude | Altitude | Speed | Heading |
|---|---|---|---|---|---|
| 2026-04-25 11:18 | 4.69834 | -74.13917 | 8372 ft | 0 kts | 217° |
| 2026-04-25 12:17 | 4.69847 | -74.13907 | 8372 ft | 4 kts | 216° |
| 2026-04-25 12:18 | 4.69869 | -74.13891 | 8372 ft | 4 kts | 216° |
| 2026-04-25 12:18 | 4.69886 | -74.13878 | 8372 ft | 4 kts | 233° |
| 2026-04-25 12:18 | 4.69892 | -74.13858 | 8372 ft | 4 kts | 298° |
| 2026-04-25 12:18 | 4.69877 | -74.13837 | 8372 ft | 4 kts | 307° |
| 2026-04-25 12:19 | 4.69873 | -74.13831 | 8372 ft | 0 kts | 307° |
| 2026-04-25 12:25 | 4.69883 | -74.13845 | 8372 ft | 5 kts | 306° |
| 2026-04-25 12:25 | 4.69913 | -74.13866 | 8372 ft | 5 kts | 350° |
| 2026-04-25 12:25 | 4.69952 | -74.13855 | 8372 ft | 6 kts | 16° |
| 2026-04-25 12:25 | 4.69988 | -74.13866 | 8372 ft | 5 kts | 321° |
| 2026-04-25 12:26 | 4.70008 | -74.13890 | 8372 ft | 5 kts | 308° |
| 2026-04-25 12:26 | 4.70042 | -74.13934 | 8372 ft | 11 kts | 307° |
| 2026-04-25 12:26 | 4.70097 | -74.14007 | 8372 ft | 15 kts | 307° |
| 2026-04-25 12:26 | 4.70170 | -74.14101 | 8372 ft | 18 kts | 307° |
| 2026-04-25 12:27 | 4.70235 | -74.14188 | 8372 ft | 14 kts | 307° |
| 2026-04-25 12:27 | 4.70297 | -74.14272 | 8372 ft | 16 kts | 307° |
| 2026-04-25 12:27 | 4.70338 | -74.14327 | 8373 ft | 3 kts | 306° |
| 2026-04-25 12:27 | 4.70341 | -74.14330 | 8373 ft | 0 kts | 306° |
| 2026-04-25 12:28 | 4.70333 | -74.14319 | 8373 ft | 0 kts | 306° |
| 2026-04-25 12:29 | 4.70334 | -74.14320 | 8372 ft | 2 kts | 306° |
| 2026-04-25 12:29 | 4.70352 | -74.14345 | 8373 ft | 4 kts | 306° |
| 2026-04-25 12:29 | 4.70386 | -74.14391 | 8373 ft | 12 kts | 307° |
| 2026-04-25 12:30 | 4.70433 | -74.14453 | 8372 ft | 9 kts | 298° |
| 2026-04-25 12:30 | 4.70419 | -74.14510 | 8373 ft | 10 kts | 227° |
| 2026-04-25 12:30 | 4.70366 | -74.14550 | 8372 ft | 9 kts | 216° |
| 2026-04-25 12:30 | 4.70310 | -74.14592 | 8372 ft | 12 kts | 217° |
| 2026-04-25 12:31 | 4.70229 | -74.14653 | 8373 ft | 16 kts | 217° |
| 2026-04-25 12:31 | 4.70137 | -74.14722 | 8372 ft | 17 kts | 217° |
| 2026-04-25 12:31 | 4.70049 | -74.14789 | 8372 ft | 16 kts | 217° |
| 2026-04-25 12:31 | 4.69962 | -74.14854 | 8372 ft | 12 kts | 217° |
| 2026-04-25 12:32 | 4.69905 | -74.14896 | 8372 ft | 10 kts | 216° |
| 2026-04-25 12:32 | 4.69858 | -74.14951 | 8372 ft | 10 kts | 263° |
| 2026-04-25 12:32 | 4.69885 | -74.15014 | 8372 ft | 9 kts | 306° |
| 2026-04-25 12:32 | 4.69912 | -74.15051 | 8372 ft | 8 kts | 306° |
| 2026-04-25 12:33 | 4.69955 | -74.15109 | 8372 ft | 13 kts | 306° |
| 2026-04-25 12:33 | 4.70019 | -74.15193 | 8372 ft | 17 kts | 307° |
| 2026-04-25 12:33 | 4.70101 | -74.15300 | 8372 ft | 21 kts | 307° |
| 2026-04-25 12:33 | 4.70191 | -74.15420 | 8372 ft | 20 kts | 308° |
| 2026-04-25 12:34 | 4.70272 | -74.15527 | 8372 ft | 19 kts | 307° |
| 2026-04-25 12:34 | 4.70348 | -74.15628 | 8371 ft | 18 kts | 307° |
| 2026-04-25 12:34 | 4.70420 | -74.15725 | 8372 ft | 17 kts | 307° |
| 2026-04-25 12:34 | 4.70467 | -74.15785 | 8371 ft | 16 kts | 308° |
| 2026-04-25 12:35 | 4.70557 | -74.15902 | 8372 ft | 16 kts | 307° |
| 2026-04-25 12:35 | 4.70622 | -74.15988 | 8372 ft | 15 kts | 307° |
| 2026-04-25 12:35 | 4.70686 | -74.16074 | 8372 ft | 15 kts | 307° |
| 2026-04-25 12:35 | 4.70752 | -74.16161 | 8372 ft | 16 kts | 307° |
| 2026-04-25 12:36 | 4.70821 | -74.16253 | 8372 ft | 17 kts | 307° |
| 2026-04-25 12:36 | 4.70895 | -74.16349 | 8372 ft | 18 kts | 307° |
| 2026-04-25 12:36 | 4.70969 | -74.16447 | 8372 ft | 16 kts | 307° |
| 2026-04-25 12:36 | 4.71027 | -74.16523 | 8372 ft | 11 kts | 308° |
| 2026-04-25 12:37 | 4.71066 | -74.16575 | 8372 ft | 7 kts | 306° |
| 2026-04-25 12:37 | 4.71080 | -74.16594 | 8371 ft | 0 kts | 307° |
| 2026-04-25 12:44 | 4.71103 | -74.16624 | 8372 ft | 9 kts | 307° |
| 2026-04-25 12:45 | 4.71146 | -74.16680 | 8372 ft | 0 kts | 307° |
| 2026-04-25 12:49 | 4.71152 | -74.16689 | 8372 ft | 6 kts | 307° |
| 2026-04-25 12:49 | 4.71179 | -74.16724 | 8372 ft | 5 kts | 307° |
| 2026-04-25 12:49 | 4.71189 | -74.16738 | 8372 ft | 0 kts | 307° |
| 2026-04-25 12:49 | 4.71200 | -74.16763 | 8372 ft | 5 kts | 285° |
| 2026-04-25 12:50 | 4.71198 | -74.16784 | 8372 ft | 0 kts | 253° |
| 2026-04-25 12:52 | 4.71166 | -74.16822 | 8371 ft | 12 kts | 218° |
| 2026-04-25 12:52 | 4.71148 | -74.16835 | 8371 ft | 1 kts | 215° |
| 2026-04-25 12:53 | 4.71146 | -74.16836 | 8371 ft | 0 kts | 215° |
| 2026-04-25 12:55 | 4.71135 | -74.16843 | 8370 ft | 7 kts | 215° |
| 2026-04-25 12:55 | 4.71037 | -74.16877 | 8369 ft | 12 kts | 163° |
| 2026-04-25 12:55 | 4.70991 | -74.16836 | 8369 ft | 0 kts | 127° |
| 2026-04-25 12:56 | 4.70877 | -74.16686 | 8370 ft | 58 kts | 127° |
| 2026-04-25 12:57 | 4.70518 | -74.16211 | 8373 ft | 112 kts | 127° |
| 2026-04-25 12:57 | 4.69941 | -74.15451 | 8372 ft | 161 kts | 127° |
| 2026-04-25 12:57 | 4.69164 | -74.14410 | 8395 ft | 211 kts | 126° |
| 2026-04-25 12:57 | 4.68217 | -74.13193 | 9076 ft | 224 kts | 127° |
| 2026-04-25 12:58 | 4.67285 | -74.12101 | 10461 ft | 197 kts | 139° |
| 2026-04-25 12:58 | 4.65971 | -74.11552 | 10780 ft | 219 kts | 176° |
| 2026-04-25 12:58 | 4.64489 | -74.11895 | 11220 ft | 225 kts | 216° |
| 2026-04-25 12:58 | 4.63589 | -74.13112 | 11917 ft | 217 kts | 248° |
| 2026-04-25 12:59 | 4.63102 | -74.14527 | 12586 ft | 217 kts | 253° |
| 2026-04-25 12:59 | 4.62746 | -74.16056 | 12870 ft | 235 kts | 263° |
| 2026-04-25 12:59 | 4.62399 | -74.17733 | 13022 ft | 259 kts | 256° |
| 2026-04-25 12:59 | 4.61936 | -74.19556 | 13278 ft | 278 kts | 256° |
| 2026-04-25 13:00 | 4.61495 | -74.21472 | 13789 ft | 287 kts | 258° |
| 2026-04-25 13:00 | 4.60647 | -74.25572 | 14541 ft | 308 kts | 256° |
| 2026-04-25 13:00 | 4.59860 | -74.27578 | 15033 ft | 313 kts | 237° |
| 2026-04-25 13:01 | 4.58471 | -74.29273 | 15570 ft | 316 kts | 227° |
| 2026-04-25 13:01 | 4.56931 | -74.30861 | 16084 ft | 320 kts | 226° |
| 2026-04-25 13:01 | 4.55360 | -74.32454 | 16585 ft | 323 kts | 226° |
| 2026-04-25 13:01 | 4.53757 | -74.34044 | 17119 ft | 326 kts | 221° |
| 2026-04-25 13:02 | 4.51905 | -74.35388 | 17551 ft | 334 kts | 213° |
| 2026-04-25 13:02 | 4.49873 | -74.36620 | 17821 ft | 348 kts | 211° |
| 2026-04-25 13:02 | 4.47746 | -74.37873 | 18070 ft | 361 kts | 211° |
| 2026-04-25 13:02 | 4.45550 | -74.39169 | 18291 ft | 372 kts | 211° |
| 2026-04-25 13:03 | 4.43288 | -74.40510 | 18445 ft | 383 kts | 211° |
| 2026-04-25 13:03 | 4.40973 | -74.41833 | 18587 ft | 394 kts | 207° |
| 2026-04-25 13:03 | 4.38370 | -74.42797 | 18724 ft | 405 kts | 193° |
| 2026-04-25 13:03 | 4.35534 | -74.43065 | 18856 ft | 416 kts | 178° |
| 2026-04-25 13:04 | 4.32660 | -74.42528 | 18978 ft | 426 kts | 161° |
| 2026-04-25 13:04 | 4.29993 | -74.41179 | 19103 ft | 435 kts | 145° |
| 2026-04-25 13:04 | 4.27692 | -74.39177 | 19265 ft | 441 kts | 136° |
| 2026-04-25 13:04 | 4.25668 | -74.36857 | 19499 ft | 445 kts | 125° |
| 2026-04-25 13:05 | 4.24231 | -74.34114 | 19776 ft | 447 kts | 109° |
| 2026-04-25 13:05 | 4.23636 | -74.31064 | 20023 ft | 448 kts | 92° |
| 2026-04-25 13:05 | 4.23951 | -74.27966 | 20281 ft | 449 kts | 75° |
| 2026-04-25 13:05 | 4.25137 | -74.25090 | 20560 ft | 448 kts | 59° |
| 2026-04-25 13:06 | 4.26907 | -74.22524 | 20819 ft | 449 kts | 51° |
| 2026-04-25 13:06 | 4.28930 | -74.20135 | 21102 ft | 450 kts | 47° |
| 2026-04-25 13:06 | 4.31031 | -74.17808 | 21346 ft | 451 kts | 47° |
| 2026-04-25 13:06 | 4.33132 | -74.15467 | 21594 ft | 453 kts | 48° |
| 2026-04-25 13:07 | 4.35204 | -74.13083 | 21847 ft | 454 kts | 49° |
| 2026-04-25 13:07 | 4.37239 | -74.10664 | 22121 ft | 455 kts | 50° |
| 2026-04-25 13:07 | 4.39253 | -74.08208 | 22367 ft | 457 kts | 50° |
| 2026-04-25 13:07 | 4.41254 | -74.05732 | 22543 ft | 458 kts | 51° |
| 2026-04-25 13:08 | 4.43258 | -74.03234 | 22742 ft | 461 kts | 51° |
| 2026-04-25 13:08 | 4.45265 | -74.00729 | 22935 ft | 462 kts | 51° |
| 2026-04-25 13:08 | 4.47278 | -73.98217 | 23152 ft | 463 kts | 51° |
| 2026-04-25 13:08 | 4.48613 | -73.96551 | 23314 ft | 463 kts | 51° |
| 2026-04-25 13:09 | 4.50635 | -73.94033 | 23517 ft | 465 kts | 51° |
| 2026-04-25 13:09 | 4.52664 | -73.91508 | 23707 ft | 466 kts | 51° |
| 2026-04-25 13:09 | 4.54701 | -73.88974 | 23869 ft | 467 kts | 51° |
| 2026-04-25 13:09 | 4.56740 | -73.86438 | 24047 ft | 468 kts | 51° |
| 2026-04-25 13:10 | 4.58764 | -73.83920 | 24150 ft | 454 kts | 51° |
| 2026-04-25 13:10 | 4.60702 | -73.81510 | 24184 ft | 434 kts | 51° |
| 2026-04-25 13:10 | 4.62556 | -73.79203 | 24165 ft | 416 kts | 51° |
| 2026-04-25 13:10 | 4.64338 | -73.76985 | 24165 ft | 401 kts | 51° |
| 2026-04-25 13:11 | 4.66056 | -73.74848 | 24165 ft | 387 kts | 51° |
| 2026-04-25 13:11 | 4.67711 | -73.72789 | 24168 ft | 373 kts | 51° |
| 2026-04-25 13:11 | 4.69317 | -73.70790 | 24178 ft | 365 kts | 51° |
| 2026-04-25 13:11 | 4.70906 | -73.68813 | 24181 ft | 364 kts | 51° |
| 2026-04-25 13:12 | 4.72497 | -73.66834 | 24325 ft | 366 kts | 51° |
| 2026-04-25 13:12 | 4.74117 | -73.64819 | 24444 ft | 376 kts | 51° |
| 2026-04-25 13:12 | 4.75777 | -73.62752 | 24593 ft | 386 kts | 51° |
| 2026-04-25 13:12 | 4.76901 | -73.61353 | 24686 ft | 392 kts | 51° |
| 2026-04-25 13:13 | 4.79222 | -73.58464 | 24886 ft | 404 kts | 51° |
| 2026-04-25 13:13 | 4.81002 | -73.56247 | 25011 ft | 412 kts | 51° |
| 2026-04-25 13:13 | 4.82817 | -73.53987 | 25156 ft | 420 kts | 51° |
| 2026-04-25 13:13 | 4.84666 | -73.51684 | 25290 ft | 428 kts | 51° |
| 2026-04-25 13:14 | 4.86547 | -73.49342 | 25367 ft | 435 kts | 51° |
| 2026-04-25 13:14 | 4.88457 | -73.46963 | 25481 ft | 441 kts | 51° |
| 2026-04-25 13:14 | 4.90393 | -73.44551 | 25595 ft | 447 kts | 51° |
| 2026-04-25 13:14 | 4.92354 | -73.42108 | 25681 ft | 453 kts | 51° |
| 2026-04-25 13:15 | 4.94338 | -73.39636 | 25774 ft | 458 kts | 51° |
| 2026-04-25 13:15 | 4.96346 | -73.37136 | 25863 ft | 462 kts | 51° |
| 2026-04-25 13:15 | 4.98372 | -73.34611 | 25935 ft | 467 kts | 51° |
| 2026-04-25 13:15 | 5.00415 | -73.32065 | 26007 ft | 471 kts | 52° |
| 2026-04-25 13:16 | 5.02473 | -73.29500 | 26076 ft | 474 kts | 52° |
| 2026-04-25 13:16 | 5.04548 | -73.26913 | 26140 ft | 477 kts | 52° |
| 2026-04-25 13:16 | 5.06636 | -73.24310 | 26217 ft | 480 kts | 52° |
| 2026-04-25 13:16 | 5.08736 | -73.21691 | 26260 ft | 482 kts | 52° |
| 2026-04-25 13:17 | 5.10813 | -73.19101 | 26406 ft | 483 kts | 52° |
| 2026-04-25 13:17 | 5.12906 | -73.16492 | 26774 ft | 479 kts | 52° |
| 2026-04-25 13:17 | 5.14997 | -73.13885 | 26906 ft | 480 kts | 52° |
| 2026-04-25 13:17 | 5.17094 | -73.11269 | 27046 ft | 482 kts | 52° |
| 2026-04-25 13:18 | 5.19195 | -73.08647 | 27156 ft | 483 kts | 52° |
| 2026-04-25 13:18 | 5.21298 | -73.06022 | 27340 ft | 482 kts | 52° |
| 2026-04-25 13:18 | 5.23386 | -73.03415 | 27740 ft | 477 kts | 52° |
| 2026-04-25 13:18 | 5.25461 | -73.00826 | 28066 ft | 475 kts | 52° |
| 2026-04-25 13:19 | 5.27533 | -72.98240 | 28276 ft | 476 kts | 52° |
| 2026-04-25 13:19 | 5.29608 | -72.95650 | 28443 ft | 477 kts | 52° |
| 2026-04-25 13:19 | 5.31689 | -72.93053 | 28584 ft | 478 kts | 52° |
| 2026-04-25 13:19 | 5.33069 | -72.91330 | 28682 ft | 479 kts | 52° |
| 2026-04-25 13:20 | 5.35861 | -72.87841 | 29009 ft | 477 kts | 52° |
| 2026-04-25 13:20 | 5.37921 | -72.85270 | 29595 ft | 469 kts | 53° |
| 2026-04-25 13:20 | 5.39954 | -72.82733 | 30082 ft | 465 kts | 53° |
| 2026-04-25 13:20 | 5.41974 | -72.80211 | 30337 ft | 463 kts | 53° |
| 2026-04-25 13:21 | 5.43991 | -72.77693 | 30579 ft | 463 kts | 53° |
| 2026-04-25 13:21 | 5.46005 | -72.75174 | 30813 ft | 462 kts | 53° |
| 2026-04-25 13:21 | 5.48017 | -72.72659 | 31019 ft | 463 kts | 53° |
| 2026-04-25 13:21 | 5.50035 | -72.70137 | 31228 ft | 463 kts | 53° |
| 2026-04-25 13:22 | 5.52050 | -72.67617 | 31481 ft | 462 kts | 53° |
| 2026-04-25 13:22 | 5.54059 | -72.65105 | 31757 ft | 461 kts | 53° |
| 2026-04-25 13:22 | 5.56063 | -72.62601 | 32014 ft | 460 kts | 53° |
| 2026-04-25 13:23 | 5.60060 | -72.57603 | 32522 ft | 458 kts | 53° |
| 2026-04-25 13:23 | 5.62053 | -72.55109 | 32768 ft | 458 kts | 53° |
| 2026-04-25 13:23 | 5.64048 | -72.52612 | 32858 ft | 460 kts | 53° |
| 2026-04-25 13:23 | 5.66052 | -72.50102 | 32996 ft | 462 kts | 53° |
| 2026-04-25 13:24 | 5.68062 | -72.47586 | 33222 ft | 462 kts | 54° |
| 2026-04-25 13:24 | 5.70070 | -72.45073 | 33456 ft | 461 kts | 54° |
| 2026-04-25 13:24 | 5.72077 | -72.42562 | 33706 ft | 460 kts | 54° |
| 2026-04-25 13:24 | 5.74054 | -72.40089 | 33932 ft | 460 kts | 54° |
| 2026-04-25 13:25 | 5.76054 | -72.37586 | 34103 ft | 459 kts | 54° |
| 2026-04-25 13:25 | 5.78052 | -72.35087 | 34294 ft | 459 kts | 54° |
| 2026-04-25 13:25 | 5.80045 | -72.32591 | 34470 ft | 458 kts | 54° |
| 2026-04-25 13:25 | 5.82038 | -72.30096 | 34703 ft | 457 kts | 54° |
| 2026-04-25 13:26 | 5.84023 | -72.27610 | 34971 ft | 455 kts | 54° |
| 2026-04-25 13:26 | 5.85999 | -72.25131 | 35144 ft | 454 kts | 54° |
| 2026-04-25 13:26 | 5.87977 | -72.22652 | 35272 ft | 456 kts | 54° |
| 2026-04-25 13:27 | 5.91969 | -72.17651 | 35431 ft | 460 kts | 54° |
| 2026-04-25 13:27 | 5.93976 | -72.15138 | 35569 ft | 461 kts | 54° |
| 2026-04-25 13:27 | 5.95981 | -72.12626 | 35769 ft | 461 kts | 54° |
| 2026-04-25 13:27 | 5.97983 | -72.10117 | 35905 ft | 460 kts | 54° |
| 2026-04-25 13:28 | 5.99983 | -72.07609 | 36080 ft | 460 kts | 54° |
| 2026-04-25 13:28 | 6.01334 | -72.05916 | 36201 ft | 459 kts | 54° |
| 2026-04-25 13:28 | 6.03977 | -72.02601 | 36416 ft | 459 kts | 54° |
| 2026-04-25 13:28 | 6.05971 | -72.00101 | 36582 ft | 458 kts | 54° |
| 2026-04-25 13:29 | 6.07962 | -71.97603 | 36732 ft | 458 kts | 54° |
| 2026-04-25 13:29 | 6.09953 | -71.95104 | 36870 ft | 458 kts | 54° |
| 2026-04-25 13:29 | 6.11948 | -71.92601 | 36982 ft | 459 kts | 54° |
| 2026-04-25 13:30 | 6.16748 | -71.86575 | 37028 ft | 462 kts | 53° |
| 2026-04-25 13:31 | 6.22807 | -71.78968 | 37014 ft | 466 kts | 53° |
| 2026-04-25 13:31 | 6.26854 | -71.73887 | 37008 ft | 466 kts | 53° |
| 2026-04-25 13:32 | 6.30901 | -71.68803 | 36994 ft | 466 kts | 53° |
| 2026-04-25 13:32 | 6.34948 | -71.63718 | 37012 ft | 466 kts | 53° |
| 2026-04-25 13:33 | 6.38995 | -71.58631 | 37013 ft | 466 kts | 53° |
| 2026-04-25 13:33 | 6.43036 | -71.53549 | 37000 ft | 465 kts | 53° |
| 2026-04-25 13:34 | 6.47080 | -71.48464 | 36999 ft | 466 kts | 53° |
| 2026-04-25 13:34 | 6.51133 | -71.43365 | 36987 ft | 467 kts | 53° |
| 2026-04-25 13:35 | 6.55196 | -71.38252 | 36982 ft | 468 kts | 53° |
| 2026-04-25 13:35 | 6.59264 | -71.33132 | 36987 ft | 469 kts | 53° |
| 2026-04-25 13:36 | 6.63333 | -71.28008 | 36983 ft | 469 kts | 53° |
| 2026-04-25 13:36 | 6.67402 | -71.22883 | 36981 ft | 469 kts | 53° |
| 2026-04-25 13:37 | 6.71469 | -71.17760 | 36982 ft | 469 kts | 53° |
| 2026-04-25 13:37 | 6.75535 | -71.12636 | 36986 ft | 469 kts | 53° |
| 2026-04-25 13:38 | 6.79602 | -71.07508 | 36988 ft | 469 kts | 53° |
| 2026-04-25 13:38 | 6.83670 | -71.02380 | 36984 ft | 469 kts | 53° |
| 2026-04-25 13:39 | 6.87736 | -70.97251 | 36976 ft | 469 kts | 53° |
| 2026-04-25 13:39 | 6.91802 | -70.92120 | 36977 ft | 469 kts | 53° |
| 2026-04-25 13:40 | 6.95866 | -70.86991 | 36980 ft | 469 kts | 53° |
| 2026-04-25 13:40 | 6.99941 | -70.81845 | 36979 ft | 471 kts | 52° |
| 2026-04-25 13:41 | 7.04025 | -70.76688 | 36994 ft | 471 kts | 52° |
| 2026-04-25 13:41 | 7.08295 | -70.71680 | 36998 ft | 472 kts | 48° |
| 2026-04-25 13:42 | 7.12823 | -70.66887 | 36994 ft | 472 kts | 47° |
| 2026-04-25 13:42 | 7.17393 | -70.62133 | 36990 ft | 473 kts | 47° |
| 2026-04-25 13:43 | 7.21977 | -70.57368 | 36986 ft | 475 kts | 47° |
| 2026-04-25 13:43 | 7.26570 | -70.52583 | 36986 ft | 475 kts | 47° |
| 2026-04-25 13:44 | 7.31154 | -70.47799 | 36981 ft | 474 kts | 47° |
| 2026-04-25 13:44 | 7.35700 | -70.43052 | 36981 ft | 474 kts | 47° |
| 2026-04-25 13:45 | 7.40307 | -70.38240 | 36978 ft | 474 kts | 47° |
| 2026-04-25 13:45 | 7.44849 | -70.33495 | 36988 ft | 474 kts | 47° |
| 2026-04-25 13:46 | 7.49424 | -70.28714 | 36983 ft | 474 kts | 47° |
| 2026-04-25 13:46 | 7.53999 | -70.23931 | 36982 ft | 474 kts | 47° |
| 2026-04-25 13:47 | 7.58574 | -70.19147 | 36984 ft | 474 kts | 47° |
| 2026-04-25 13:47 | 7.63157 | -70.14353 | 36986 ft | 475 kts | 47° |
| 2026-04-25 13:48 | 7.67742 | -70.09554 | 36983 ft | 475 kts | 47° |
| 2026-04-25 13:48 | 7.72330 | -70.04752 | 36982 ft | 475 kts | 47° |
| 2026-04-25 13:49 | 7.76916 | -69.99951 | 36987 ft | 475 kts | 47° |
| 2026-04-25 13:49 | 7.81501 | -69.95148 | 36986 ft | 475 kts | 47° |
| 2026-04-25 13:50 | 7.86086 | -69.90344 | 36990 ft | 475 kts | 47° |
| 2026-04-25 13:50 | 7.90676 | -69.85532 | 36985 ft | 476 kts | 47° |
| 2026-04-25 13:51 | 7.95277 | -69.80708 | 36985 ft | 478 kts | 47° |
| 2026-04-25 13:51 | 7.99885 | -69.75875 | 36991 ft | 478 kts | 47° |
| 2026-04-25 13:52 | 8.04491 | -69.71042 | 36991 ft | 478 kts | 47° |
| 2026-04-25 13:52 | 8.09096 | -69.66208 | 36990 ft | 478 kts | 47° |
| 2026-04-25 13:53 | 8.13705 | -69.61369 | 36994 ft | 478 kts | 47° |
| 2026-04-25 13:53 | 8.18312 | -69.56530 | 37003 ft | 478 kts | 47° |
| 2026-04-25 13:54 | 8.22916 | -69.51692 | 36991 ft | 478 kts | 47° |
| 2026-04-25 13:54 | 8.26749 | -69.47664 | 36993 ft | 479 kts | 47° |
| 2026-04-25 13:55 | 8.31372 | -69.42803 | 36991 ft | 480 kts | 47° |
| 2026-04-25 13:55 | 8.35997 | -69.37939 | 36997 ft | 480 kts | 47° |
| 2026-04-25 13:56 | 8.40619 | -69.33075 | 36994 ft | 480 kts | 47° |
| 2026-04-25 13:56 | 8.45242 | -69.28209 | 36995 ft | 480 kts | 47° |
| 2026-04-25 13:57 | 8.49862 | -69.23344 | 36992 ft | 480 kts | 47° |
| 2026-04-25 13:57 | 8.54488 | -69.18472 | 36994 ft | 481 kts | 47° |
| 2026-04-25 13:58 | 8.59131 | -69.13579 | 36998 ft | 483 kts | 47° |
| 2026-04-25 13:58 | 8.63779 | -69.08679 | 36993 ft | 483 kts | 47° |
| 2026-04-25 13:59 | 8.68423 | -69.03782 | 36990 ft | 483 kts | 47° |
| 2026-04-25 13:59 | 8.73069 | -68.98880 | 36998 ft | 483 kts | 47° |
| 2026-04-25 14:00 | 8.77713 | -68.93979 | 36993 ft | 483 kts | 47° |
| 2026-04-25 14:00 | 8.82356 | -68.89077 | 37001 ft | 483 kts | 47° |
| 2026-04-25 14:01 | 8.87003 | -68.84169 | 36999 ft | 483 kts | 47° |
| 2026-04-25 14:01 | 8.91640 | -68.79270 | 36999 ft | 481 kts | 47° |
| 2026-04-25 14:02 | 8.96266 | -68.74380 | 36997 ft | 481 kts | 47° |
| 2026-04-25 14:02 | 9.00892 | -68.69488 | 36989 ft | 481 kts | 47° |
| 2026-04-25 14:03 | 9.05515 | -68.64598 | 36994 ft | 481 kts | 47° |
| 2026-04-25 14:03 | 9.10141 | -68.59702 | 36994 ft | 481 kts | 47° |
| 2026-04-25 14:04 | 9.14766 | -68.54806 | 36990 ft | 481 kts | 47° |
| 2026-04-25 14:04 | 9.19359 | -68.49941 | 36990 ft | 482 kts | 47° |
| 2026-04-25 14:05 | 9.23993 | -68.45031 | 36992 ft | 482 kts | 47° |
| 2026-04-25 14:05 | 9.28628 | -68.40117 | 36989 ft | 483 kts | 47° |
| 2026-04-25 14:06 | 9.33264 | -68.35202 | 36992 ft | 482 kts | 47° |
| 2026-04-25 14:06 | 9.37898 | -68.30286 | 36991 ft | 482 kts | 47° |
| 2026-04-25 14:07 | 9.42532 | -68.25368 | 36996 ft | 482 kts | 47° |
| 2026-04-25 14:07 | 9.47165 | -68.20449 | 36997 ft | 482 kts | 47° |
| 2026-04-25 14:08 | 9.51797 | -68.15529 | 36995 ft | 483 kts | 47° |
| 2026-04-25 14:08 | 9.56442 | -68.10593 | 37001 ft | 485 kts | 47° |
| 2026-04-25 14:09 | 9.61094 | -68.05648 | 36999 ft | 485 kts | 47° |
| 2026-04-25 14:09 | 9.65746 | -68.00700 | 37000 ft | 485 kts | 48° |
| 2026-04-25 14:10 | 9.70394 | -67.95754 | 37006 ft | 485 kts | 48° |
| 2026-04-25 14:10 | 9.75046 | -67.90803 | 37008 ft | 485 kts | 48° |
| 2026-04-25 14:11 | 9.79693 | -67.85854 | 37006 ft | 485 kts | 48° |
| 2026-04-25 14:11 | 9.84347 | -67.80897 | 37014 ft | 486 kts | 47° |
| 2026-04-25 14:12 | 9.89023 | -67.75912 | 37020 ft | 488 kts | 47° |
| 2026-04-25 14:12 | 9.93703 | -67.70922 | 37024 ft | 488 kts | 47° |
| 2026-04-25 14:13 | 9.98354 | -67.65962 | 37022 ft | 488 kts | 47° |
| 2026-04-25 14:13 | 10.03033 | -67.60968 | 37017 ft | 488 kts | 47° |
| 2026-04-25 14:14 | 10.07712 | -67.55971 | 37012 ft | 488 kts | 48° |
| 2026-04-25 14:14 | 10.12387 | -67.50977 | 37015 ft | 488 kts | 48° |
| 2026-04-25 14:15 | 10.17063 | -67.45980 | 37016 ft | 488 kts | 48° |
| 2026-04-25 14:15 | 10.21739 | -67.40981 | 37015 ft | 488 kts | 48° |
| 2026-04-25 14:16 | 10.26414 | -67.35981 | 37013 ft | 488 kts | 48° |
| 2026-04-25 14:16 | 10.31090 | -67.30977 | 37015 ft | 488 kts | 48° |
| 2026-04-25 14:17 | 10.35763 | -67.25974 | 37023 ft | 488 kts | 48° |
| 2026-04-25 14:17 | 10.40436 | -67.20968 | 37024 ft | 488 kts | 48° |
| 2026-04-25 14:18 | 10.45101 | -67.15968 | 37008 ft | 488 kts | 48° |
| 2026-04-25 14:18 | 10.49778 | -67.10953 | 37013 ft | 490 kts | 48° |
| 2026-04-25 14:19 | 10.54463 | -67.05927 | 37017 ft | 490 kts | 48° |
| 2026-04-25 14:19 | 10.59153 | -67.00892 | 36962 ft | 491 kts | 49° |
| 2026-04-25 14:20 | 10.63301 | -66.95418 | 36967 ft | 488 kts | 57° |
| 2026-04-25 14:20 | 10.67140 | -66.89730 | 36968 ft | 488 kts | 58° |
| 2026-04-25 14:21 | 10.70921 | -66.84006 | 36971 ft | 488 kts | 58° |
| 2026-04-25 14:21 | 10.74712 | -66.78269 | 36973 ft | 489 kts | 58° |
| 2026-04-25 14:22 | 10.78512 | -66.72535 | 36979 ft | 490 kts | 58° |
| 2026-04-25 14:22 | 10.82334 | -66.66775 | 36964 ft | 491 kts | 58° |
| 2026-04-25 14:23 | 10.86132 | -66.61050 | 36965 ft | 491 kts | 58° |
| 2026-04-25 14:23 | 10.89951 | -66.55290 | 36962 ft | 491 kts | 58° |
| 2026-04-25 14:24 | 10.93771 | -66.49523 | 36959 ft | 491 kts | 58° |
| 2026-04-25 14:24 | 10.97589 | -66.43759 | 36961 ft | 491 kts | 58° |
| 2026-04-25 14:25 | 11.01407 | -66.37989 | 36960 ft | 491 kts | 58° |
| 2026-04-25 14:25 | 11.05260 | -66.32238 | 36960 ft | 492 kts | 57° |
| 2026-04-25 14:26 | 11.09160 | -66.26514 | 36964 ft | 493 kts | 57° |
| 2026-04-25 14:26 | 11.13070 | -66.20782 | 36961 ft | 492 kts | 57° |
| 2026-04-25 14:27 | 11.16964 | -66.15058 | 36964 ft | 491 kts | 57° |
| 2026-04-25 14:27 | 11.20848 | -66.09336 | 36964 ft | 491 kts | 57° |
| 2026-04-25 14:28 | 11.24731 | -66.03613 | 36965 ft | 491 kts | 57° |
| 2026-04-25 14:28 | 11.28615 | -65.97885 | 36965 ft | 491 kts | 57° |
| 2026-04-25 14:29 | 11.32494 | -65.92161 | 36963 ft | 491 kts | 57° |
| 2026-04-25 14:29 | 11.36372 | -65.86437 | 36968 ft | 491 kts | 57° |
| 2026-04-25 14:30 | 11.40253 | -65.80704 | 36966 ft | 492 kts | 57° |
| 2026-04-25 14:30 | 11.46080 | -65.72089 | 36969 ft | 492 kts | 57° |
| 2026-04-25 14:31 | 11.49964 | -65.66339 | 36966 ft | 492 kts | 57° |
| 2026-04-25 14:31 | 11.53845 | -65.60589 | 36966 ft | 492 kts | 57° |
| 2026-04-25 14:32 | 11.57708 | -65.54864 | 36969 ft | 494 kts | 57° |
| 2026-04-25 14:32 | 11.61607 | -65.49082 | 36969 ft | 495 kts | 57° |
| 2026-04-25 14:33 | 11.65509 | -65.43294 | 36971 ft | 495 kts | 57° |
| 2026-04-25 14:33 | 11.69428 | -65.37521 | 36968 ft | 494 kts | 56° |
| 2026-04-25 14:34 | 11.73391 | -65.31791 | 36967 ft | 494 kts | 56° |
| 2026-04-25 14:34 | 11.77365 | -65.26062 | 36971 ft | 496 kts | 56° |
| 2026-04-25 14:35 | 11.81351 | -65.20299 | 36971 ft | 498 kts | 56° |
| 2026-04-25 14:35 | 11.85342 | -65.14520 | 36971 ft | 498 kts | 56° |
| 2026-04-25 14:36 | 11.89331 | -65.08738 | 36966 ft | 498 kts | 56° |
| 2026-04-25 14:36 | 11.93317 | -65.02956 | 36966 ft | 498 kts | 56° |
| 2026-04-25 14:37 | 11.97303 | -64.97171 | 36973 ft | 498 kts | 56° |
| 2026-04-25 14:37 | 12.01294 | -64.91375 | 36970 ft | 499 kts | 56° |
| 2026-04-25 14:38 | 12.05291 | -64.85567 | 36971 ft | 500 kts | 56° |
| 2026-04-25 14:38 | 12.09290 | -64.79754 | 36970 ft | 500 kts | 56° |
| 2026-04-25 14:39 | 12.13289 | -64.73936 | 36968 ft | 500 kts | 56° |
| 2026-04-25 14:39 | 12.17286 | -64.68119 | 36968 ft | 500 kts | 56° |
| 2026-04-25 14:40 | 12.21280 | -64.62302 | 36968 ft | 500 kts | 56° |
| 2026-04-25 14:40 | 12.25275 | -64.56479 | 36974 ft | 500 kts | 56° |
| 2026-04-25 14:41 | 12.29270 | -64.50653 | 36971 ft | 500 kts | 56° |
| 2026-04-25 14:41 | 12.33265 | -64.44824 | 36975 ft | 500 kts | 56° |
| 2026-04-25 14:42 | 12.35909 | -64.40963 | 36970 ft | 501 kts | 56° |
| 2026-04-25 14:42 | 12.41182 | -64.33169 | 36971 ft | 500 kts | 57° |
| 2026-04-25 14:43 | 12.45123 | -64.27316 | 36974 ft | 499 kts | 57° |
| 2026-04-25 14:43 | 12.49059 | -64.21471 | 36974 ft | 499 kts | 57° |
| 2026-04-25 14:44 | 12.52359 | -64.16573 | 36982 ft | 499 kts | 57° |
| 2026-04-25 14:44 | 12.56300 | -64.10721 | 36974 ft | 500 kts | 57° |
| 2026-04-25 14:45 | 12.60251 | -64.04851 | 36968 ft | 501 kts | 57° |
| 2026-04-25 14:45 | 12.64193 | -63.98990 | 36974 ft | 498 kts | 57° |
| 2026-04-25 14:46 | 12.68115 | -63.93156 | 36976 ft | 497 kts | 57° |
| 2026-04-25 14:46 | 12.72004 | -63.87366 | 36979 ft | 497 kts | 57° |
| 2026-04-25 14:47 | 12.75282 | -63.82483 | 36982 ft | 497 kts | 57° |
| 2026-04-25 14:47 | 12.79829 | -63.75707 | 36980 ft | 497 kts | 57° |
| 2026-04-25 14:48 | 12.83740 | -63.69860 | 36980 ft | 498 kts | 57° |
| 2026-04-25 14:48 | 12.87811 | -63.64116 | 36982 ft | 499 kts | 52° |
| 2026-04-25 14:49 | 12.92176 | -63.58586 | 36980 ft | 499 kts | 51° |
| 2026-04-25 14:49 | 12.96594 | -63.53095 | 36978 ft | 499 kts | 51° |
| 2026-04-25 14:50 | 13.01018 | -63.47603 | 36978 ft | 499 kts | 51° |
| 2026-04-25 14:50 | 13.05433 | -63.42108 | 36981 ft | 499 kts | 51° |
| 2026-04-25 14:51 | 13.09847 | -63.36604 | 36982 ft | 500 kts | 51° |
| 2026-04-25 14:51 | 13.14259 | -63.31098 | 36978 ft | 500 kts | 51° |
| 2026-04-25 14:52 | 13.18642 | -63.25623 | 36983 ft | 500 kts | 51° |
| 2026-04-25 14:52 | 13.22336 | -63.21007 | 36985 ft | 500 kts | 51° |
| 2026-04-25 14:53 | 13.27458 | -63.14603 | 36984 ft | 500 kts | 51° |
| 2026-04-25 14:53 | 13.31866 | -63.09089 | 36982 ft | 499 kts | 52° |
| 2026-04-25 14:54 | 13.36263 | -63.03584 | 36988 ft | 498 kts | 52° |
| 2026-04-25 14:54 | 13.40661 | -62.98075 | 36985 ft | 499 kts | 52° |
| 2026-04-25 14:55 | 13.45068 | -62.92550 | 36984 ft | 500 kts | 52° |
| 2026-04-25 14:55 | 13.49474 | -62.87022 | 36982 ft | 500 kts | 52° |
| 2026-04-25 14:56 | 13.53882 | -62.81491 | 36985 ft | 500 kts | 52° |
| 2026-04-25 14:56 | 13.58283 | -62.75962 | 36984 ft | 499 kts | 52° |
| 2026-04-25 14:57 | 13.62681 | -62.70435 | 36987 ft | 499 kts | 52° |
| 2026-04-25 14:57 | 13.67079 | -62.64905 | 36988 ft | 500 kts | 52° |
| 2026-04-25 14:58 | 13.71484 | -62.59360 | 36988 ft | 501 kts | 52° |
| 2026-04-25 14:58 | 13.75897 | -62.53803 | 36988 ft | 501 kts | 52° |
| 2026-04-25 14:59 | 13.80310 | -62.48243 | 37012 ft | 501 kts | 52° |
| 2026-04-25 14:59 | 13.84710 | -62.42695 | 36988 ft | 501 kts | 52° |
| 2026-04-25 15:00 | 13.89121 | -62.37129 | 36990 ft | 502 kts | 52° |
| 2026-04-25 15:00 | 13.93534 | -62.31558 | 36994 ft | 502 kts | 52° |
| 2026-04-25 15:01 | 13.97950 | -62.25978 | 36988 ft | 503 kts | 52° |
| 2026-04-25 15:01 | 14.02370 | -62.20390 | 36986 ft | 504 kts | 52° |
| 2026-04-25 15:02 | 14.06801 | -62.14784 | 36984 ft | 506 kts | 52° |
| 2026-04-25 15:02 | 14.11243 | -62.09161 | 36987 ft | 506 kts | 52° |
| 2026-04-25 15:03 | 14.15683 | -62.03537 | 36989 ft | 506 kts | 52° |
| 2026-04-25 15:03 | 14.20119 | -61.97913 | 36989 ft | 506 kts | 52° |
| 2026-04-25 15:04 | 14.24556 | -61.92284 | 36989 ft | 506 kts | 52° |
| 2026-04-25 15:04 | 14.28993 | -61.86651 | 36987 ft | 507 kts | 52° |
| 2026-04-25 15:05 | 14.33437 | -61.81006 | 36983 ft | 507 kts | 52° |
| 2026-04-25 15:06 | 14.40103 | -61.72531 | 36986 ft | 507 kts | 52° |
| 2026-04-25 15:06 | 14.44546 | -61.66877 | 36990 ft | 507 kts | 52° |
| 2026-04-25 15:07 | 14.48958 | -61.61257 | 36987 ft | 507 kts | 52° |
| 2026-04-25 15:07 | 14.53398 | -61.55599 | 36988 ft | 507 kts | 52° |
| 2026-04-25 15:08 | 14.57839 | -61.49937 | 36987 ft | 507 kts | 52° |
| 2026-04-25 15:08 | 14.62275 | -61.44275 | 36989 ft | 507 kts | 52° |
| 2026-04-25 15:09 | 14.66712 | -61.38608 | 36994 ft | 507 kts | 52° |
| 2026-04-25 15:09 | 14.73364 | -61.30105 | 36991 ft | 507 kts | 52° |
| 2026-04-25 15:10 | 14.77802 | -61.24428 | 36996 ft | 508 kts | 52° |
| 2026-04-25 15:11 | 14.82373 | -61.18575 | 36992 ft | 508 kts | 52° |
| 2026-04-25 15:11 | 14.86811 | -61.12888 | 36986 ft | 508 kts | 52° |
| 2026-04-25 15:12 | 14.93469 | -61.04351 | 36995 ft | 508 kts | 52° |
| 2026-04-25 15:12 | 14.96437 | -61.00541 | 36998 ft | 509 kts | 52° |
| 2026-04-25 15:13 | 15.04568 | -60.90093 | 36997 ft | 509 kts | 52° |
| 2026-04-25 15:14 | 15.09009 | -60.84381 | 37002 ft | 510 kts | 52° |
| 2026-04-25 15:14 | 15.13448 | -60.78670 | 36999 ft | 509 kts | 52° |
| 2026-04-25 15:15 | 15.17888 | -60.72956 | 37005 ft | 510 kts | 52° |
| 2026-04-25 15:15 | 15.22332 | -60.67230 | 37000 ft | 510 kts | 52° |
| 2026-04-25 15:16 | 15.26772 | -60.61502 | 36977 ft | 511 kts | 52° |
| 2026-04-25 15:16 | 15.33439 | -60.52893 | 36996 ft | 510 kts | 52° |
| 2026-04-25 15:17 | 15.40100 | -60.44282 | 36995 ft | 510 kts | 52° |
| 2026-04-25 15:18 | 15.44538 | -60.38540 | 37007 ft | 510 kts | 52° |
| 2026-04-25 15:18 | 15.51191 | -60.29924 | 36997 ft | 510 kts | 52° |
| 2026-04-25 15:19 | 15.54127 | -60.26118 | 37011 ft | 510 kts | 51° |
| 2026-04-25 15:19 | 15.60031 | -60.18458 | 37006 ft | 511 kts | 51° |
| 2026-04-25 15:20 | 15.64467 | -60.12698 | 37005 ft | 511 kts | 51° |
| 2026-04-25 15:20 | 15.68903 | -60.06936 | 37009 ft | 511 kts | 51° |
| 2026-04-25 15:21 | 15.73335 | -60.01171 | 37004 ft | 511 kts | 51° |
| 2026-04-25 15:21 | 15.77769 | -59.95401 | 37010 ft | 511 kts | 51° |
| 2026-04-25 15:22 | 15.82199 | -59.89631 | 37009 ft | 511 kts | 51° |
| 2026-04-25 15:22 | 15.86628 | -59.83859 | 37012 ft | 511 kts | 51° |
| 2026-04-25 15:23 | 15.91052 | -59.78088 | 37004 ft | 511 kts | 51° |
| 2026-04-25 15:23 | 15.95475 | -59.72314 | 37007 ft | 511 kts | 51° |
| 2026-04-25 15:24 | 15.99897 | -59.66536 | 37008 ft | 511 kts | 51° |
| 2026-04-25 15:24 | 16.02853 | -59.62672 | 37008 ft | 510 kts | 51° |
| 2026-04-25 15:25 | 16.08739 | -59.54971 | 37004 ft | 512 kts | 51° |
| 2026-04-25 15:25 | 16.13166 | -59.49173 | 37012 ft | 512 kts | 51° |
| 2026-04-25 15:26 | 16.17591 | -59.43373 | 37009 ft | 512 kts | 51° |
| 2026-04-25 15:26 | 16.22013 | -59.37573 | 37006 ft | 512 kts | 51° |
| 2026-04-25 15:27 | 16.26407 | -59.31805 | 37003 ft | 512 kts | 51° |
| 2026-04-25 15:28 | 16.33032 | -59.23100 | 37011 ft | 512 kts | 51° |
| 2026-04-25 15:28 | 16.37461 | -59.17275 | 37014 ft | 513 kts | 51° |
| 2026-04-25 15:29 | 16.41891 | -59.11443 | 37008 ft | 514 kts | 51° |
| 2026-04-25 15:29 | 16.46322 | -59.05605 | 37013 ft | 514 kts | 51° |
| 2026-04-25 15:30 | 16.50753 | -58.99764 | 37016 ft | 513 kts | 51° |
| 2026-04-25 15:30 | 16.55164 | -58.93941 | 37023 ft | 512 kts | 51° |
| 2026-04-25 15:31 | 16.59587 | -58.88101 | 37023 ft | 514 kts | 51° |
| 2026-04-25 15:31 | 16.64019 | -58.82242 | 37008 ft | 515 kts | 51° |
| 2026-04-25 15:32 | 16.67735 | -58.77327 | 37007 ft | 515 kts | 51° |
| 2026-04-25 15:32 | 16.72165 | -58.71461 | 37014 ft | 515 kts | 51° |
| 2026-04-25 15:33 | 16.78810 | -58.62656 | 37027 ft | 515 kts | 51° |
| 2026-04-25 15:33 | 16.81606 | -58.58947 | 37019 ft | 515 kts | 51° |
| 2026-04-25 15:34 | 16.84773 | -58.54731 | 37014 ft | 517 kts | 51° |
| 2026-04-25 15:34 | 16.88492 | -58.49794 | 37017 ft | 516 kts | 51° |
| 2026-04-25 15:35 | 16.95862 | -58.40006 | 37015 ft | 515 kts | 51° |
| 2026-04-25 15:36 | 17.02499 | -58.31171 | 37009 ft | 515 kts | 51° |
| 2026-04-25 15:36 | 17.06923 | -58.25274 | 37019 ft | 516 kts | 51° |
| 2026-04-25 15:37 | 17.11352 | -58.19367 | 37017 ft | 516 kts | 51° |
| 2026-04-25 15:37 | 17.15778 | -58.13458 | 37016 ft | 516 kts | 51° |
| 2026-04-25 15:38 | 17.20202 | -58.07547 | 37013 ft | 516 kts | 51° |
| 2026-04-25 15:38 | 17.24623 | -58.01635 | 37019 ft | 516 kts | 51° |
| 2026-04-25 15:39 | 17.29044 | -57.95718 | 37023 ft | 516 kts | 51° |
| 2026-04-25 15:39 | 17.33467 | -57.89793 | 37026 ft | 517 kts | 51° |
| 2026-04-25 15:40 | 17.37143 | -57.84864 | 37024 ft | 517 kts | 51° |
| 2026-04-25 15:40 | 17.42310 | -57.77931 | 37024 ft | 517 kts | 51° |
| 2026-04-25 15:41 | 17.46725 | -57.72000 | 37026 ft | 517 kts | 51° |
| 2026-04-25 15:41 | 17.51142 | -57.66062 | 37037 ft | 516 kts | 51° |
| 2026-04-25 15:42 | 17.55558 | -57.60121 | 37028 ft | 517 kts | 51° |
| 2026-04-25 15:42 | 17.59977 | -57.54170 | 37028 ft | 517 kts | 51° |
| 2026-04-25 15:43 | 17.64395 | -57.48216 | 37031 ft | 517 kts | 51° |
| 2026-04-25 15:43 | 17.68808 | -57.42261 | 37031 ft | 517 kts | 51° |
| 2026-04-25 15:44 | 17.73191 | -57.36340 | 37031 ft | 517 kts | 51° |
| 2026-04-25 15:44 | 17.77599 | -57.30381 | 37032 ft | 517 kts | 51° |
| 2026-04-25 15:45 | 17.82042 | -57.24370 | 37031 ft | 518 kts | 51° |
| 2026-04-25 15:45 | 17.85713 | -57.19399 | 37033 ft | 518 kts | 51° |
| 2026-04-25 15:46 | 17.90842 | -57.12447 | 37034 ft | 518 kts | 51° |
| 2026-04-25 15:46 | 17.95252 | -57.06464 | 37034 ft | 517 kts | 51° |
| 2026-04-25 15:47 | 17.99548 | -57.00413 | 37031 ft | 518 kts | 59° |
| 2026-04-25 15:47 | 18.02908 | -56.93713 | 37034 ft | 519 kts | 64° |
| 2026-04-25 15:48 | 18.06042 | -56.86863 | 37034 ft | 520 kts | 65° |
| 2026-04-25 15:48 | 18.09129 | -56.79990 | 37034 ft | 519 kts | 65° |
| 2026-04-25 15:49 | 18.12217 | -56.73140 | 37034 ft | 518 kts | 65° |
| 2026-04-25 15:49 | 18.15314 | -56.66298 | 37034 ft | 518 kts | 65° |
| 2026-04-25 15:50 | 18.18411 | -56.59457 | 37036 ft | 518 kts | 65° |
| 2026-04-25 15:50 | 18.21505 | -56.52617 | 37033 ft | 518 kts | 65° |
| 2026-04-25 15:51 | 18.24073 | -56.46934 | 37035 ft | 517 kts | 65° |
| 2026-04-25 15:51 | 18.27680 | -56.38939 | 37028 ft | 517 kts | 65° |
| 2026-04-25 15:52 | 18.30762 | -56.32099 | 37034 ft | 517 kts | 65° |
| 2026-04-25 15:52 | 18.33841 | -56.25258 | 37034 ft | 517 kts | 65° |
| 2026-04-25 15:53 | 18.36915 | -56.18421 | 37034 ft | 517 kts | 65° |
| 2026-04-25 15:53 | 18.39968 | -56.11622 | 37040 ft | 518 kts | 65° |
| 2026-04-25 15:54 | 18.43047 | -56.04757 | 37037 ft | 519 kts | 65° |
| 2026-04-25 15:54 | 18.46127 | -55.97884 | 37039 ft | 519 kts | 65° |
| 2026-04-25 15:55 | 18.49204 | -55.91006 | 37039 ft | 519 kts | 65° |
| 2026-04-25 15:55 | 18.52280 | -55.84126 | 37039 ft | 519 kts | 65° |
| 2026-04-25 15:56 | 18.55352 | -55.77245 | 37039 ft | 519 kts | 65° |
| 2026-04-25 15:56 | 18.58421 | -55.70363 | 37041 ft | 519 kts | 65° |
| 2026-04-25 15:57 | 18.61492 | -55.63468 | 37042 ft | 521 kts | 65° |
| 2026-04-25 15:57 | 18.64569 | -55.56551 | 37039 ft | 521 kts | 65° |
| 2026-04-25 15:58 | 18.67644 | -55.49631 | 37039 ft | 521 kts | 65° |
| 2026-04-25 15:58 | 18.70709 | -55.42727 | 37042 ft | 519 kts | 65° |
| 2026-04-25 15:59 | 18.73766 | -55.35830 | 37042 ft | 519 kts | 65° |
| 2026-04-25 15:59 | 18.76820 | -55.28932 | 37050 ft | 519 kts | 65° |
| 2026-04-25 16:00 | 18.78843 | -55.24359 | 37045 ft | 520 kts | 65° |
| 2026-04-25 16:00 | 18.82918 | -55.15136 | 37047 ft | 521 kts | 65° |
| 2026-04-25 16:01 | 18.85977 | -55.08203 | 37046 ft | 521 kts | 65° |
| 2026-04-25 16:01 | 18.89032 | -55.01270 | 37044 ft | 521 kts | 65° |
| 2026-04-25 16:02 | 18.92083 | -54.94338 | 37044 ft | 520 kts | 65° |
| 2026-04-25 16:02 | 18.95127 | -54.87413 | 37045 ft | 519 kts | 65° |
| 2026-04-25 16:03 | 18.98168 | -54.80487 | 37049 ft | 521 kts | 65° |
| 2026-04-25 16:03 | 19.01220 | -54.73529 | 37047 ft | 522 kts | 65° |
| 2026-04-25 16:04 | 19.04267 | -54.66571 | 37047 ft | 521 kts | 65° |
| 2026-04-25 16:04 | 19.07306 | -54.59625 | 37048 ft | 521 kts | 65° |
| 2026-04-25 16:05 | 19.10343 | -54.52676 | 37047 ft | 521 kts | 65° |
| 2026-04-25 16:06 | 19.14890 | -54.42252 | 37048 ft | 520 kts | 65° |
| 2026-04-25 16:06 | 19.17920 | -54.35296 | 37046 ft | 522 kts | 65° |
| 2026-04-25 16:07 | 19.20954 | -54.28322 | 37047 ft | 522 kts | 65° |
| 2026-04-25 16:07 | 19.23967 | -54.21389 | 37049 ft | 522 kts | 65° |
| 2026-04-25 16:08 | 19.26992 | -54.14419 | 37050 ft | 521 kts | 65° |
| 2026-04-25 16:08 | 19.30010 | -54.07456 | 37053 ft | 520 kts | 65° |
| 2026-04-25 16:09 | 19.33027 | -54.00487 | 37060 ft | 521 kts | 65° |
| 2026-04-25 16:09 | 19.36045 | -53.93507 | 37054 ft | 522 kts | 65° |
| 2026-04-25 16:10 | 19.39064 | -53.86516 | 37050 ft | 522 kts | 65° |
| 2026-04-25 16:10 | 19.42080 | -53.79523 | 37053 ft | 522 kts | 65° |
| 2026-04-25 16:11 | 19.45092 | -53.72528 | 37050 ft | 522 kts | 65° |
| 2026-04-25 16:11 | 19.48098 | -53.65543 | 37054 ft | 521 kts | 65° |
| 2026-04-25 16:12 | 19.51098 | -53.58559 | 37053 ft | 521 kts | 65° |
| 2026-04-25 16:12 | 19.54103 | -53.51558 | 37054 ft | 523 kts | 65° |
| 2026-04-25 16:13 | 19.57115 | -53.44530 | 37050 ft | 523 kts | 65° |
| 2026-04-25 16:13 | 19.60124 | -53.37500 | 37050 ft | 523 kts | 65° |
| 2026-04-25 16:14 | 19.63130 | -53.30466 | 37051 ft | 523 kts | 65° |
| 2026-04-25 16:14 | 19.66133 | -53.23432 | 37052 ft | 523 kts | 65° |
| 2026-04-25 16:15 | 19.69131 | -53.16401 | 37056 ft | 523 kts | 65° |
| 2026-04-25 16:15 | 19.72111 | -53.09404 | 37056 ft | 525 kts | 65° |
| 2026-04-25 16:16 | 19.75116 | -53.02337 | 37055 ft | 525 kts | 65° |
| 2026-04-25 16:16 | 19.78119 | -52.95268 | 37056 ft | 525 kts | 65° |
| 2026-04-25 16:17 | 19.81113 | -52.88209 | 37053 ft | 524 kts | 65° |
| 2026-04-25 16:17 | 19.84102 | -52.81151 | 37056 ft | 524 kts | 65° |
| 2026-04-25 16:18 | 19.87091 | -52.74088 | 37055 ft | 525 kts | 65° |
| 2026-04-25 16:18 | 19.90084 | -52.67004 | 37052 ft | 526 kts | 65° |
| 2026-04-25 16:19 | 19.93078 | -52.59909 | 37057 ft | 526 kts | 65° |
| 2026-04-25 16:19 | 19.96068 | -52.52813 | 37057 ft | 526 kts | 65° |
| 2026-04-25 16:20 | 20.00541 | -52.42180 | 37056 ft | 525 kts | 65° |
| 2026-04-25 16:21 | 20.04500 | -52.32753 | 37054 ft | 524 kts | 65° |
| 2026-04-25 16:21 | 20.07469 | -52.25670 | 37054 ft | 524 kts | 65° |
| 2026-04-25 16:22 | 20.10434 | -52.18591 | 37056 ft | 524 kts | 65° |
| 2026-04-25 16:22 | 20.13393 | -52.11513 | 37056 ft | 524 kts | 65° |
| 2026-04-25 16:23 | 20.16350 | -52.04433 | 37052 ft | 523 kts | 65° |
| 2026-04-25 16:23 | 20.19304 | -51.97349 | 37061 ft | 523 kts | 65° |
| 2026-04-25 16:24 | 20.22259 | -51.90254 | 37056 ft | 525 kts | 65° |
| 2026-04-25 16:24 | 20.25215 | -51.83147 | 37057 ft | 525 kts | 65° |
| 2026-04-25 16:25 | 20.28171 | -51.76031 | 37056 ft | 525 kts | 65° |
| 2026-04-25 16:25 | 20.31120 | -51.68921 | 37059 ft | 525 kts | 65° |
| 2026-04-25 16:26 | 20.34067 | -51.61807 | 37060 ft | 525 kts | 65° |
| 2026-04-25 16:26 | 20.37012 | -51.54687 | 37059 ft | 525 kts | 65° |
| 2026-04-25 16:27 | 20.39957 | -51.47558 | 37056 ft | 526 kts | 65° |
| 2026-04-25 16:27 | 20.42900 | -51.40426 | 37056 ft | 526 kts | 65° |
| 2026-04-25 16:28 | 20.45839 | -51.33290 | 37065 ft | 526 kts | 65° |
| 2026-04-25 16:28 | 20.48776 | -51.26153 | 37059 ft | 525 kts | 65° |
| 2026-04-25 16:29 | 20.51709 | -51.19013 | 37069 ft | 526 kts | 65° |
| 2026-04-25 16:29 | 20.54645 | -51.11858 | 37059 ft | 527 kts | 65° |
| 2026-04-25 16:30 | 20.57586 | -51.04681 | 37059 ft | 528 kts | 65° |
| 2026-04-25 16:30 | 20.60524 | -50.97500 | 37062 ft | 528 kts | 65° |
| 2026-04-25 16:31 | 20.63460 | -50.90314 | 37059 ft | 528 kts | 65° |
| 2026-04-25 16:31 | 20.66392 | -50.83127 | 37061 ft | 528 kts | 65° |
| 2026-04-25 16:32 | 20.69320 | -50.75939 | 37061 ft | 529 kts | 65° |
| 2026-04-25 16:32 | 20.72257 | -50.68724 | 37064 ft | 530 kts | 65° |
| 2026-04-25 16:33 | 20.75192 | -50.61500 | 37065 ft | 530 kts | 65° |
| 2026-04-25 16:33 | 20.78098 | -50.54335 | 37064 ft | 529 kts | 65° |
| 2026-04-25 16:34 | 20.81019 | -50.47124 | 37060 ft | 528 kts | 65° |
| 2026-04-25 16:34 | 20.83937 | -50.39913 | 37060 ft | 529 kts | 65° |
| 2026-04-25 16:35 | 20.86859 | -50.32679 | 37063 ft | 530 kts | 65° |
| 2026-04-25 16:35 | 20.89781 | -50.25438 | 37062 ft | 530 kts | 65° |
| 2026-04-25 16:36 | 20.92698 | -50.18196 | 37057 ft | 530 kts | 65° |
| 2026-04-25 16:36 | 20.95610 | -50.10956 | 37065 ft | 529 kts | 65° |
| 2026-04-25 16:37 | 20.98517 | -50.03720 | 37066 ft | 529 kts | 65° |
| 2026-04-25 16:37 | 21.00861 | -49.96235 | 37052 ft | 532 kts | 74° |
| 2026-04-25 16:38 | 21.02716 | -49.88564 | 37066 ft | 533 kts | 75° |
| 2026-04-25 16:38 | 21.04482 | -49.80866 | 37064 ft | 533 kts | 76° |
| 2026-04-25 16:39 | 21.06244 | -49.73167 | 37062 ft | 533 kts | 76° |
| 2026-04-25 16:39 | 21.08015 | -49.65470 | 37065 ft | 532 kts | 75° |
| 2026-04-25 16:40 | 21.09789 | -49.57777 | 37073 ft | 532 kts | 75° |
| 2026-04-25 16:40 | 21.11561 | -49.50079 | 37066 ft | 533 kts | 75° |
| 2026-04-25 16:41 | 21.13331 | -49.42372 | 37061 ft | 533 kts | 75° |
| 2026-04-25 16:41 | 21.15980 | -49.30802 | 37062 ft | 533 kts | 75° |
| 2026-04-25 16:42 | 21.17741 | -49.23088 | 37064 ft | 533 kts | 75° |
| 2026-04-25 16:42 | 21.19498 | -49.15373 | 37061 ft | 533 kts | 75° |
| 2026-04-25 16:43 | 21.21251 | -49.07658 | 37060 ft | 533 kts | 75° |
| 2026-04-25 16:43 | 21.23002 | -48.99942 | 37059 ft | 533 kts | 75° |
| 2026-04-25 16:44 | 21.24749 | -48.92220 | 37063 ft | 533 kts | 75° |
| 2026-04-25 16:44 | 21.26492 | -48.84497 | 37064 ft | 533 kts | 75° |
| 2026-04-25 16:45 | 21.28233 | -48.76769 | 37066 ft | 533 kts | 75° |
| 2026-04-25 16:45 | 21.29970 | -48.69040 | 37069 ft | 533 kts | 75° |
| 2026-04-25 16:46 | 21.31703 | -48.61311 | 37077 ft | 533 kts | 75° |
| 2026-04-25 16:46 | 21.32850 | -48.56188 | 37068 ft | 533 kts | 75° |
| 2026-04-25 16:47 | 21.35158 | -48.45851 | 37069 ft | 533 kts | 75° |
| 2026-04-25 16:47 | 21.36879 | -48.38124 | 37073 ft | 533 kts | 75° |
| 2026-04-25 16:48 | 21.38598 | -48.30389 | 37070 ft | 533 kts | 75° |
| 2026-04-25 16:48 | 21.40313 | -48.22652 | 37072 ft | 533 kts | 75° |
| 2026-04-25 16:49 | 21.42013 | -48.14964 | 37072 ft | 533 kts | 75° |
| 2026-04-25 16:49 | 21.43722 | -48.07219 | 37067 ft | 533 kts | 75° |
| 2026-04-25 16:50 | 21.45427 | -47.99473 | 37070 ft | 533 kts | 76° |
| 2026-04-25 16:50 | 21.47130 | -47.91721 | 37071 ft | 533 kts | 76° |
| 2026-04-25 16:51 | 21.48829 | -47.83967 | 37076 ft | 534 kts | 76° |
| 2026-04-25 16:51 | 21.49963 | -47.78780 | 37071 ft | 534 kts | 76° |
| 2026-04-25 16:52 | 21.52215 | -47.68457 | 37086 ft | 533 kts | 76° |
| 2026-04-25 16:52 | 21.53903 | -47.60702 | 37072 ft | 533 kts | 75° |
| 2026-04-25 16:53 | 21.56427 | -47.49070 | 37072 ft | 533 kts | 76° |
| 2026-04-25 16:54 | 21.58105 | -47.41310 | 37073 ft | 533 kts | 76° |
| 2026-04-25 16:54 | 21.59781 | -47.33543 | 37075 ft | 534 kts | 76° |
| 2026-04-25 16:55 | 21.61454 | -47.25771 | 37073 ft | 534 kts | 76° |
| 2026-04-25 16:55 | 21.63123 | -47.18000 | 37074 ft | 533 kts | 75° |
| 2026-04-25 16:56 | 21.64785 | -47.10241 | 37072 ft | 533 kts | 75° |
| 2026-04-25 16:56 | 21.66445 | -47.02478 | 37074 ft | 533 kts | 76° |
| 2026-04-25 16:57 | 21.68099 | -46.94720 | 37071 ft | 533 kts | 76° |
| 2026-04-25 16:57 | 21.69740 | -46.87006 | 37076 ft | 533 kts | 76° |
| 2026-04-25 16:58 | 21.71389 | -46.79238 | 37079 ft | 533 kts | 76° |
| 2026-04-25 16:58 | 21.73032 | -46.71471 | 37075 ft | 532 kts | 75° |
| 2026-04-25 16:59 | 21.74671 | -46.63713 | 37078 ft | 532 kts | 75° |
| 2026-04-25 16:59 | 21.76305 | -46.55954 | 37076 ft | 532 kts | 75° |
| 2026-04-25 17:00 | 21.77936 | -46.48195 | 37080 ft | 532 kts | 75° |
| 2026-04-25 17:00 | 21.79564 | -46.40431 | 37086 ft | 532 kts | 76° |
| 2026-04-25 17:01 | 21.81189 | -46.32659 | 37083 ft | 532 kts | 76° |
| 2026-04-25 17:01 | 21.82810 | -46.24886 | 37079 ft | 533 kts | 75° |
| 2026-04-25 17:02 | 21.84430 | -46.17102 | 37080 ft | 533 kts | 75° |
| 2026-04-25 17:02 | 21.86046 | -46.09318 | 37081 ft | 533 kts | 76° |
| 2026-04-25 17:03 | 21.87656 | -46.01539 | 37078 ft | 532 kts | 76° |
| 2026-04-25 17:03 | 21.89262 | -45.93762 | 37074 ft | 532 kts | 76° |
| 2026-04-25 17:04 | 21.90865 | -45.85984 | 37089 ft | 532 kts | 76° |
| 2026-04-25 17:04 | 21.92466 | -45.78192 | 37083 ft | 534 kts | 76° |
| 2026-04-25 17:05 | 21.94066 | -45.70389 | 37083 ft | 533 kts | 76° |
| 2026-04-25 17:05 | 21.96456 | -45.58690 | 37081 ft | 533 kts | 76° |
| 2026-04-25 17:06 | 21.98044 | -45.50894 | 37083 ft | 532 kts | 76° |
| 2026-04-25 17:06 | 21.99626 | -45.43104 | 37094 ft | 532 kts | 76° |
| 2026-04-25 17:07 | 22.00940 | -45.36626 | 37082 ft | 533 kts | 76° |
| 2026-04-25 17:07 | 22.02519 | -45.28815 | 37087 ft | 533 kts | 76° |
| 2026-04-25 17:08 | 22.04095 | -45.21003 | 37085 ft | 533 kts | 76° |
| 2026-04-25 17:08 | 22.05666 | -45.13194 | 37082 ft | 533 kts | 76° |
| 2026-04-25 17:09 | 22.07232 | -45.05386 | 37089 ft | 533 kts | 76° |
| 2026-04-25 17:09 | 22.08795 | -44.97577 | 37089 ft | 533 kts | 76° |
| 2026-04-25 17:10 | 22.10358 | -44.89753 | 37079 ft | 534 kts | 76° |
| 2026-04-25 17:10 | 22.11917 | -44.81922 | 37086 ft | 533 kts | 76° |
| 2026-04-25 17:11 | 22.13468 | -44.74107 | 37086 ft | 533 kts | 76° |
| 2026-04-25 17:11 | 22.15017 | -44.66287 | 37087 ft | 533 kts | 76° |
| 2026-04-25 17:12 | 22.16562 | -44.58468 | 37087 ft | 533 kts | 76° |
| 2026-04-25 17:12 | 22.18104 | -44.50644 | 37086 ft | 533 kts | 76° |
| 2026-04-25 17:13 | 22.19382 | -44.44138 | 37086 ft | 533 kts | 76° |
| 2026-04-25 17:13 | 22.21165 | -44.35042 | 37087 ft | 533 kts | 76° |
| 2026-04-25 17:14 | 22.22697 | -44.27207 | 37086 ft | 534 kts | 76° |
| 2026-04-25 17:14 | 22.24225 | -44.19369 | 37087 ft | 534 kts | 76° |
| 2026-04-25 17:15 | 22.25749 | -44.11529 | 37087 ft | 534 kts | 76° |
| 2026-04-25 17:15 | 22.27270 | -44.03684 | 37090 ft | 534 kts | 76° |
| 2026-04-25 17:16 | 22.28789 | -43.95829 | 37086 ft | 535 kts | 76° |
| 2026-04-25 17:16 | 22.30306 | -43.87965 | 37089 ft | 535 kts | 76° |
| 2026-04-25 17:17 | 22.31820 | -43.80096 | 37087 ft | 535 kts | 76° |
| 2026-04-25 17:17 | 22.33330 | -43.72221 | 37089 ft | 536 kts | 76° |
| 2026-04-25 17:18 | 22.34837 | -43.64341 | 37094 ft | 536 kts | 76° |
| 2026-04-25 17:18 | 22.36340 | -43.56460 | 37087 ft | 536 kts | 76° |
| 2026-04-25 17:19 | 22.37831 | -43.48626 | 37096 ft | 536 kts | 76° |
| 2026-04-25 17:19 | 22.39328 | -43.40737 | 37093 ft | 536 kts | 76° |
| 2026-04-25 17:20 | 22.40821 | -43.32841 | 37095 ft | 536 kts | 76° |
| 2026-04-25 17:20 | 22.42311 | -43.24946 | 37097 ft | 536 kts | 76° |
| 2026-04-25 17:21 | 22.43794 | -43.17062 | 37093 ft | 535 kts | 76° |
| 2026-04-25 17:21 | 22.45272 | -43.09185 | 37094 ft | 535 kts | 76° |
| 2026-04-25 17:22 | 22.46497 | -43.02636 | 37106 ft | 535 kts | 76° |
| 2026-04-25 17:22 | 22.48217 | -42.93418 | 37090 ft | 535 kts | 76° |
| 2026-04-25 17:23 | 22.49686 | -42.85527 | 37093 ft | 535 kts | 76° |
| 2026-04-25 17:23 | 22.51150 | -42.77633 | 37093 ft | 535 kts | 76° |
| 2026-04-25 17:24 | 22.52610 | -42.69738 | 37087 ft | 535 kts | 76° |
| 2026-04-25 17:24 | 22.54057 | -42.61892 | 37095 ft | 535 kts | 76° |
| 2026-04-25 17:25 | 22.55510 | -42.53993 | 37099 ft | 536 kts | 76° |
| 2026-04-25 17:25 | 22.56961 | -42.46084 | 37095 ft | 536 kts | 76° |
| 2026-04-25 17:26 | 22.58407 | -42.38174 | 37100 ft | 536 kts | 76° |
| 2026-04-25 17:26 | 22.59850 | -42.30264 | 37092 ft | 536 kts | 76° |
| 2026-04-25 17:27 | 22.61289 | -42.22347 | 37093 ft | 536 kts | 76° |
| 2026-04-25 17:27 | 22.62249 | -42.17053 | 37100 ft | 536 kts | 76° |
| 2026-04-25 17:28 | 22.64155 | -42.06517 | 37102 ft | 536 kts | 76° |
| 2026-04-25 17:28 | 22.65582 | -41.98597 | 37102 ft | 536 kts | 76° |
| 2026-04-25 17:29 | 22.67005 | -41.90679 | 37097 ft | 536 kts | 76° |
| 2026-04-25 17:29 | 22.68425 | -41.82754 | 37099 ft | 536 kts | 76° |
| 2026-04-25 17:30 | 22.69840 | -41.74832 | 37107 ft | 536 kts | 76° |
| 2026-04-25 17:30 | 22.71253 | -41.66902 | 37100 ft | 536 kts | 76° |
| 2026-04-25 17:31 | 22.72662 | -41.58966 | 37097 ft | 536 kts | 76° |
| 2026-04-25 17:31 | 22.74067 | -41.51033 | 37096 ft | 536 kts | 76° |
| 2026-04-25 17:32 | 22.75465 | -41.43109 | 37098 ft | 536 kts | 76° |
| 2026-04-25 17:32 | 22.76851 | -41.35235 | 37102 ft | 536 kts | 76° |
| 2026-04-25 17:33 | 22.78243 | -41.27305 | 37099 ft | 536 kts | 76° |
| 2026-04-25 17:33 | 22.79631 | -41.19370 | 37098 ft | 536 kts | 76° |
| 2026-04-25 17:34 | 22.81015 | -41.11433 | 37100 ft | 536 kts | 76° |
| 2026-04-25 17:34 | 22.82396 | -41.03492 | 37103 ft | 536 kts | 76° |
| 2026-04-25 17:35 | 22.83773 | -40.95550 | 37100 ft | 536 kts | 76° |
| 2026-04-25 17:35 | 22.85146 | -40.87603 | 37105 ft | 536 kts | 76° |
| 2026-04-25 17:36 | 22.86516 | -40.79653 | 37104 ft | 537 kts | 76° |
| 2026-04-25 17:36 | 22.87883 | -40.71692 | 37102 ft | 537 kts | 76° |
| 2026-04-25 17:37 | 22.89246 | -40.63731 | 37106 ft | 537 kts | 76° |
| 2026-04-25 17:37 | 22.90607 | -40.55761 | 37102 ft | 538 kts | 76° |
| 2026-04-25 17:38 | 22.91516 | -40.50424 | 37104 ft | 538 kts | 76° |
| 2026-04-25 17:38 | 22.93318 | -40.39802 | 37105 ft | 538 kts | 76° |
| 2026-04-25 17:39 | 22.94670 | -40.31809 | 37103 ft | 539 kts | 76° |
| 2026-04-25 17:39 | 22.96018 | -40.23812 | 37110 ft | 539 kts | 76° |
| 2026-04-25 17:40 | 22.97361 | -40.15817 | 37104 ft | 539 kts | 76° |
| 2026-04-25 17:40 | 22.98702 | -40.07810 | 37101 ft | 539 kts | 76° |
| 2026-04-25 17:41 | 22.99445 | -39.99699 | 37110 ft | 545 kts | 92° |
| 2026-04-25 17:41 | 22.98104 | -39.91600 | 37103 ft | 546 kts | 103° |
| 2026-04-25 17:42 | 22.96233 | -39.83619 | 37104 ft | 545 kts | 105° |
| 2026-04-25 17:42 | 22.94277 | -39.75664 | 37105 ft | 546 kts | 105° |
| 2026-04-25 17:43 | 22.92346 | -39.67694 | 37105 ft | 547 kts | 105° |
| 2026-04-25 17:43 | 22.90449 | -39.59766 | 37105 ft | 547 kts | 104° |
| 2026-04-25 17:44 | 22.88529 | -39.51726 | 37104 ft | 547 kts | 104° |
| 2026-04-25 17:44 | 22.86630 | -39.43788 | 37102 ft | 547 kts | 104° |
| 2026-04-25 17:45 | 22.85350 | -39.38450 | 37105 ft | 546 kts | 104° |
| 2026-04-25 17:45 | 22.82799 | -39.27848 | 37107 ft | 546 kts | 104° |
| 2026-04-25 17:46 | 22.80877 | -39.19878 | 37101 ft | 547 kts | 105° |
| 2026-04-25 17:46 | 22.78949 | -39.11905 | 37109 ft | 547 kts | 105° |
| 2026-04-25 17:47 | 22.77016 | -39.03932 | 37105 ft | 547 kts | 105° |
| 2026-04-25 17:47 | 22.75078 | -38.95954 | 37103 ft | 547 kts | 105° |
| 2026-04-25 17:48 | 22.72172 | -38.84027 | 37102 ft | 546 kts | 105° |
| 2026-04-25 17:49 | 22.70231 | -38.76082 | 37106 ft | 546 kts | 105° |
| 2026-04-25 17:49 | 22.68286 | -38.68141 | 37102 ft | 546 kts | 105° |
| 2026-04-25 17:50 | 22.66337 | -38.60199 | 37102 ft | 546 kts | 105° |
| 2026-04-25 17:50 | 22.64381 | -38.52248 | 37093 ft | 547 kts | 105° |
| 2026-04-25 17:51 | 22.62422 | -38.44306 | 37105 ft | 545 kts | 105° |
| 2026-04-25 17:51 | 22.60465 | -38.36387 | 37105 ft | 545 kts | 105° |
| 2026-04-25 17:52 | 22.58503 | -38.28467 | 37103 ft | 545 kts | 105° |
| 2026-04-25 17:52 | 22.56536 | -38.20544 | 37102 ft | 545 kts | 105° |
| 2026-04-25 17:53 | 22.54564 | -38.12620 | 37102 ft | 546 kts | 105° |
| 2026-04-25 17:53 | 22.52585 | -38.04686 | 37103 ft | 547 kts | 105° |
| 2026-04-25 17:54 | 22.50602 | -37.96749 | 37101 ft | 547 kts | 105° |
| 2026-04-25 17:54 | 22.48614 | -37.88816 | 37102 ft | 547 kts | 105° |
| 2026-04-25 17:55 | 22.46620 | -37.80873 | 37102 ft | 548 kts | 105° |
| 2026-04-25 17:55 | 22.44621 | -37.72930 | 37103 ft | 547 kts | 105° |
| 2026-04-25 17:56 | 22.42957 | -37.66330 | 37104 ft | 548 kts | 105° |
| 2026-04-25 17:56 | 22.40948 | -37.58379 | 37104 ft | 549 kts | 105° |
| 2026-04-25 17:57 | 22.38934 | -37.50429 | 37100 ft | 548 kts | 105° |
| 2026-04-25 17:57 | 22.36923 | -37.42504 | 37103 ft | 547 kts | 105° |
| 2026-04-25 17:58 | 22.34906 | -37.34572 | 37102 ft | 548 kts | 105° |
| 2026-04-25 17:58 | 22.32883 | -37.26637 | 37103 ft | 548 kts | 105° |
| 2026-04-25 17:59 | 22.30856 | -37.18702 | 37103 ft | 548 kts | 105° |
| 2026-04-25 17:59 | 22.28822 | -37.10760 | 37104 ft | 549 kts | 105° |
| 2026-04-25 18:00 | 22.26783 | -37.02815 | 37097 ft | 549 kts | 105° |
| 2026-04-25 18:00 | 22.24746 | -36.94894 | 37104 ft | 547 kts | 105° |
| 2026-04-25 18:01 | 22.22705 | -36.86975 | 37105 ft | 548 kts | 105° |
| 2026-04-25 18:01 | 22.20659 | -36.79053 | 37102 ft | 548 kts | 105° |
| 2026-04-25 18:02 | 22.18611 | -36.71138 | 37106 ft | 548 kts | 105° |
| 2026-04-25 18:02 | 22.16554 | -36.63209 | 37102 ft | 549 kts | 105° |
| 2026-04-25 18:03 | 22.14491 | -36.55274 | 37083 ft | 549 kts | 105° |
| 2026-04-25 18:03 | 22.12442 | -36.47408 | 37100 ft | 547 kts | 105° |
| 2026-04-25 18:04 | 22.10381 | -36.39512 | 37102 ft | 547 kts | 105° |
| 2026-04-25 18:04 | 22.08304 | -36.31575 | 37100 ft | 546 kts | 105° |
| 2026-04-25 18:05 | 22.06251 | -36.23746 | 37105 ft | 546 kts | 105° |
| 2026-04-25 18:05 | 22.04178 | -36.15854 | 37103 ft | 548 kts | 105° |
| 2026-04-25 18:06 | 22.02098 | -36.07956 | 37101 ft | 548 kts | 105° |
| 2026-04-25 18:06 | 22.00008 | -36.00066 | 37109 ft | 547 kts | 107° |
| 2026-04-25 18:07 | 21.97492 | -35.92343 | 37105 ft | 546 kts | 111° |
| 2026-04-25 18:07 | 21.94724 | -35.84731 | 37100 ft | 546 kts | 112° |
| 2026-04-25 18:08 | 21.91968 | -35.77115 | 37097 ft | 546 kts | 112° |
| 2026-04-25 18:08 | 21.89248 | -35.69470 | 37104 ft | 548 kts | 111° |
| 2026-04-25 18:09 | 21.86538 | -35.61798 | 37104 ft | 549 kts | 111° |
| 2026-04-25 18:09 | 21.83826 | -35.54125 | 37095 ft | 547 kts | 111° |
| 2026-04-25 18:10 | 21.81118 | -35.46480 | 37101 ft | 546 kts | 111° |
| 2026-04-25 18:10 | 21.78404 | -35.38840 | 37105 ft | 547 kts | 111° |
| 2026-04-25 18:11 | 21.75681 | -35.31187 | 37101 ft | 548 kts | 111° |
| 2026-04-25 18:11 | 21.72957 | -35.23541 | 37104 ft | 548 kts | 111° |
| 2026-04-25 18:12 | 21.70224 | -35.15886 | 37099 ft | 549 kts | 111° |
| 2026-04-25 18:12 | 21.67490 | -35.08236 | 37095 ft | 547 kts | 111° |
| 2026-04-25 18:13 | 21.64778 | -35.00665 | 37093 ft | 546 kts | 111° |
| 2026-04-25 18:13 | 21.62046 | -34.93049 | 37099 ft | 547 kts | 111° |
| 2026-04-25 18:14 | 21.57934 | -34.81609 | 37099 ft | 547 kts | 111° |
| 2026-04-25 18:14 | 21.55187 | -34.73983 | 37099 ft | 547 kts | 111° |
| 2026-04-25 18:15 | 21.52436 | -34.66358 | 37094 ft | 548 kts | 112° |
| 2026-04-25 18:15 | 21.49685 | -34.58744 | 37103 ft | 546 kts | 112° |
| 2026-04-25 18:16 | 21.46934 | -34.51144 | 37095 ft | 546 kts | 112° |
| 2026-04-25 18:17 | 21.42800 | -34.39746 | 37099 ft | 547 kts | 112° |
| 2026-04-25 18:17 | 21.40033 | -34.32134 | 37095 ft | 547 kts | 112° |
| 2026-04-25 18:18 | 21.37264 | -34.24527 | 37092 ft | 547 kts | 112° |
| 2026-04-25 18:18 | 21.34495 | -34.16931 | 37096 ft | 546 kts | 112° |
| 2026-04-25 18:19 | 21.31726 | -34.09351 | 37098 ft | 546 kts | 112° |
| 2026-04-25 18:19 | 21.28955 | -34.01776 | 37096 ft | 546 kts | 112° |
| 2026-04-25 18:20 | 21.26181 | -33.94202 | 37090 ft | 546 kts | 112° |
| 2026-04-25 18:20 | 21.23402 | -33.86631 | 37091 ft | 546 kts | 112° |
| 2026-04-25 18:21 | 21.20621 | -33.79063 | 37088 ft | 546 kts | 112° |
| 2026-04-25 18:21 | 21.17838 | -33.71504 | 37086 ft | 544 kts | 112° |
| 2026-04-25 18:22 | 21.15063 | -33.63976 | 37088 ft | 543 kts | 112° |
| 2026-04-25 18:22 | 21.12285 | -33.56454 | 37090 ft | 543 kts | 112° |
| 2026-04-25 18:23 | 21.09501 | -33.48929 | 37091 ft | 544 kts | 112° |
| 2026-04-25 18:23 | 21.06713 | -33.41400 | 37093 ft | 544 kts | 112° |
| 2026-04-25 18:24 | 21.03921 | -33.33875 | 37093 ft | 544 kts | 112° |
| 2026-04-25 18:24 | 21.01122 | -33.26343 | 37078 ft | 545 kts | 112° |
| 2026-04-25 18:25 | 20.98319 | -33.18814 | 37079 ft | 545 kts | 112° |
| 2026-04-25 18:25 | 20.95513 | -33.11286 | 37083 ft | 545 kts | 112° |
| 2026-04-25 18:26 | 20.92700 | -33.03752 | 37087 ft | 546 kts | 112° |
| 2026-04-25 18:26 | 20.89899 | -32.96260 | 37082 ft | 546 kts | 112° |
| 2026-04-25 18:27 | 20.87076 | -32.88721 | 37093 ft | 546 kts | 112° |
| 2026-04-25 18:27 | 20.84248 | -32.81181 | 37082 ft | 547 kts | 112° |
| 2026-04-25 18:28 | 20.81421 | -32.73657 | 37081 ft | 545 kts | 112° |
| 2026-04-25 18:28 | 20.78596 | -32.66147 | 37078 ft | 544 kts | 112° |
| 2026-04-25 18:29 | 20.74351 | -32.54887 | 37073 ft | 545 kts | 112° |
| 2026-04-25 18:30 | 20.68673 | -32.39862 | 37075 ft | 546 kts | 112° |
| 2026-04-25 18:30 | 20.65827 | -32.32350 | 37081 ft | 545 kts | 112° |
| 2026-04-25 18:31 | 20.62986 | -32.24860 | 37073 ft | 544 kts | 113° |
| 2026-04-25 18:31 | 20.60143 | -32.17378 | 37072 ft | 544 kts | 113° |
| 2026-04-25 18:32 | 20.57296 | -32.09898 | 37078 ft | 544 kts | 113° |
| 2026-04-25 18:32 | 20.54447 | -32.02422 | 37070 ft | 544 kts | 113° |
| 2026-04-25 18:33 | 20.51592 | -31.94942 | 37080 ft | 544 kts | 113° |
| 2026-04-25 18:33 | 20.48732 | -31.87461 | 37053 ft | 544 kts | 113° |
| 2026-04-25 18:34 | 20.45876 | -31.80000 | 37067 ft | 542 kts | 113° |
| 2026-04-25 18:34 | 20.43022 | -31.72560 | 37066 ft | 542 kts | 113° |
| 2026-04-25 18:35 | 20.39944 | -31.65227 | 37064 ft | 542 kts | 116° |
| 2026-04-25 18:35 | 20.36711 | -31.57977 | 37066 ft | 542 kts | 117° |
| 2026-04-25 18:36 | 20.33479 | -31.50727 | 37073 ft | 542 kts | 116° |
| 2026-04-25 18:36 | 20.30265 | -31.43459 | 37065 ft | 543 kts | 116° |
| 2026-04-25 18:37 | 20.27060 | -31.36184 | 37066 ft | 542 kts | 116° |
| 2026-04-25 18:37 | 20.23886 | -31.28985 | 37062 ft | 540 kts | 116° |
| 2026-04-25 18:38 | 20.20688 | -31.21745 | 37063 ft | 540 kts | 116° |
| 2026-04-25 18:38 | 20.17486 | -31.14508 | 37063 ft | 540 kts | 116° |
| 2026-04-25 18:39 | 20.14280 | -31.07275 | 37059 ft | 540 kts | 116° |
| 2026-04-25 18:39 | 20.11074 | -31.00048 | 37058 ft | 540 kts | 116° |
| 2026-04-25 18:40 | 20.07866 | -30.92826 | 37057 ft | 540 kts | 116° |
| 2026-04-25 18:40 | 20.04658 | -30.85613 | 37058 ft | 539 kts | 116° |
| 2026-04-25 18:41 | 20.01449 | -30.78408 | 37058 ft | 539 kts | 116° |
| 2026-04-25 18:41 | 19.98238 | -30.71210 | 37059 ft | 539 kts | 116° |
| 2026-04-25 18:42 | 19.96089 | -30.66397 | 37058 ft | 539 kts | 116° |
| 2026-04-25 18:42 | 19.91806 | -30.56817 | 37055 ft | 539 kts | 116° |
| 2026-04-25 18:43 | 19.88584 | -30.49620 | 37042 ft | 539 kts | 116° |
| 2026-04-25 18:43 | 19.85910 | -30.43655 | 37057 ft | 537 kts | 116° |
| 2026-04-25 18:44 | 19.82699 | -30.36501 | 37050 ft | 536 kts | 116° |
| 2026-04-25 18:44 | 19.79485 | -30.29348 | 37050 ft | 537 kts | 116° |
| 2026-04-25 18:45 | 19.76267 | -30.22196 | 37056 ft | 537 kts | 116° |
| 2026-04-25 18:45 | 19.73045 | -30.15046 | 37056 ft | 537 kts | 116° |
| 2026-04-25 18:46 | 19.69822 | -30.07901 | 37050 ft | 537 kts | 116° |
| 2026-04-25 18:46 | 19.66592 | -30.00752 | 37049 ft | 537 kts | 116° |
| 2026-04-25 18:47 | 19.63368 | -29.93623 | 37050 ft | 535 kts | 116° |
| 2026-04-25 18:47 | 19.60145 | -29.86506 | 37045 ft | 535 kts | 116° |
| 2026-04-25 18:48 | 19.56918 | -29.79389 | 37046 ft | 535 kts | 117° |
| 2026-04-25 18:48 | 19.53686 | -29.72271 | 37045 ft | 536 kts | 117° |
| 2026-04-25 18:49 | 19.50449 | -29.65151 | 37038 ft | 536 kts | 117° |
| 2026-04-25 18:49 | 19.47210 | -29.58035 | 37023 ft | 536 kts | 117° |
| 2026-04-25 18:50 | 19.43978 | -29.50941 | 37048 ft | 533 kts | 117° |
| 2026-04-25 18:50 | 19.40751 | -29.43870 | 37045 ft | 533 kts | 117° |
| 2026-04-25 18:51 | 19.38067 | -29.37994 | 37043 ft | 533 kts | 117° |
| 2026-04-25 18:51 | 19.34287 | -29.29730 | 37039 ft | 533 kts | 117° |
| 2026-04-25 18:52 | 19.31050 | -29.22663 | 37040 ft | 534 kts | 117° |
| 2026-04-25 18:52 | 19.27828 | -29.15636 | 37039 ft | 535 kts | 117° |
| 2026-04-25 18:53 | 19.24576 | -29.08553 | 37033 ft | 534 kts | 117° |
| 2026-04-25 18:53 | 19.21336 | -29.01505 | 37040 ft | 531 kts | 117° |
| 2026-04-25 18:54 | 19.16485 | -28.90969 | 37040 ft | 531 kts | 117° |
| 2026-04-25 18:55 | 19.13244 | -28.83939 | 37036 ft | 532 kts | 117° |
| 2026-04-25 18:55 | 19.09998 | -28.76909 | 37034 ft | 532 kts | 117° |
| 2026-04-25 18:56 | 19.06750 | -28.69883 | 37035 ft | 532 kts | 117° |
| 2026-04-25 18:56 | 19.03498 | -28.62854 | 37031 ft | 532 kts | 117° |
| 2026-04-25 18:57 | 19.00242 | -28.55828 | 37030 ft | 533 kts | 117° |
| 2026-04-25 18:57 | 18.96979 | -28.48795 | 37031 ft | 533 kts | 117° |
| 2026-04-25 18:58 | 18.93715 | -28.41767 | 37031 ft | 533 kts | 117° |
| 2026-04-25 18:58 | 18.88814 | -28.31230 | 37033 ft | 533 kts | 117° |
| 2026-04-25 18:59 | 18.82271 | -28.17193 | 37029 ft | 533 kts | 117° |
| 2026-04-25 19:00 | 18.77390 | -28.06743 | 37033 ft | 530 kts | 117° |
| 2026-04-25 19:01 | 18.72497 | -27.96286 | 37029 ft | 530 kts | 117° |
| 2026-04-25 19:01 | 18.69233 | -27.89322 | 37027 ft | 529 kts | 117° |
| 2026-04-25 19:02 | 18.64334 | -27.78884 | 37027 ft | 530 kts | 117° |
| 2026-04-25 19:03 | 18.59979 | -27.69620 | 37026 ft | 530 kts | 117° |
| 2026-04-25 19:03 | 18.56159 | -27.61505 | 37026 ft | 527 kts | 117° |
| 2026-04-25 19:04 | 18.51269 | -27.51133 | 37023 ft | 526 kts | 117° |
| 2026-04-25 19:05 | 18.44742 | -27.37317 | 37021 ft | 527 kts | 117° |
| 2026-04-25 19:06 | 18.41469 | -27.30402 | 37022 ft | 527 kts | 117° |
| 2026-04-25 19:06 | 18.36559 | -27.20041 | 37006 ft | 527 kts | 118° |
| 2026-04-25 19:07 | 18.31655 | -27.09710 | 37021 ft | 525 kts | 118° |
| 2026-04-25 19:08 | 18.26757 | -26.99412 | 37016 ft | 525 kts | 118° |
| 2026-04-25 19:09 | 18.20769 | -26.86844 | 37026 ft | 525 kts | 118° |
| 2026-04-25 19:10 | 18.15300 | -26.75388 | 37014 ft | 525 kts | 118° |
| 2026-04-25 19:10 | 18.12017 | -26.68521 | 37011 ft | 525 kts | 118° |
| 2026-04-25 19:11 | 18.08739 | -26.61672 | 37013 ft | 524 kts | 118° |
| 2026-04-25 19:11 | 18.05461 | -26.54830 | 37012 ft | 524 kts | 118° |
| 2026-04-25 19:12 | 18.02181 | -26.47993 | 37014 ft | 524 kts | 118° |
| 2026-04-25 19:12 | 17.98897 | -26.41155 | 37008 ft | 524 kts | 118° |
| 2026-04-25 19:13 | 17.95612 | -26.34321 | 37009 ft | 524 kts | 118° |
| 2026-04-25 19:13 | 17.92322 | -26.27486 | 37007 ft | 524 kts | 118° |
| 2026-04-25 19:14 | 17.89033 | -26.20658 | 36998 ft | 524 kts | 118° |
| 2026-04-25 19:14 | 17.85748 | -26.13847 | 37007 ft | 522 kts | 118° |
| 2026-04-25 19:15 | 17.82491 | -26.07101 | 37008 ft | 521 kts | 118° |
| 2026-04-25 19:15 | 17.79188 | -26.00330 | 37004 ft | 521 kts | 120° |
| 2026-04-25 19:16 | 17.75737 | -25.93649 | 37006 ft | 521 kts | 121° |
| 2026-04-25 19:16 | 17.72239 | -25.86994 | 37007 ft | 521 kts | 121° |
| 2026-04-25 19:17 | 17.68750 | -25.80336 | 36998 ft | 521 kts | 121° |
| 2026-04-25 19:17 | 17.65270 | -25.73673 | 36986 ft | 521 kts | 120° |
| 2026-04-25 19:18 | 17.61798 | -25.67019 | 37001 ft | 519 kts | 120° |
| 2026-04-25 19:18 | 17.58332 | -25.60384 | 36996 ft | 518 kts | 121° |
| 2026-04-25 19:19 | 17.54868 | -25.53760 | 36996 ft | 518 kts | 121° |
| 2026-04-25 19:19 | 17.51400 | -25.47138 | 36997 ft | 518 kts | 121° |
| 2026-04-25 19:20 | 17.47929 | -25.40516 | 36996 ft | 518 kts | 121° |
| 2026-04-25 19:20 | 17.44457 | -25.33899 | 36996 ft | 518 kts | 121° |
| 2026-04-25 19:21 | 17.40982 | -25.27282 | 36999 ft | 518 kts | 121° |
| 2026-04-25 19:21 | 17.35772 | -25.17374 | 36996 ft | 517 kts | 121° |
| 2026-04-25 19:22 | 17.32303 | -25.10787 | 36997 ft | 517 kts | 121° |
| 2026-04-25 19:23 | 17.27093 | -25.00905 | 36995 ft | 517 kts | 121° |
| 2026-04-25 19:23 | 17.21877 | -24.91025 | 36994 ft | 517 kts | 121° |
| 2026-04-25 19:24 | 17.18398 | -24.84444 | 36990 ft | 517 kts | 121° |
| 2026-04-25 19:25 | 17.11437 | -24.71296 | 36987 ft | 516 kts | 121° |
| 2026-04-25 19:25 | 17.07960 | -24.64739 | 36979 ft | 516 kts | 121° |
| 2026-04-25 19:26 | 17.04481 | -24.58184 | 36982 ft | 516 kts | 121° |
| 2026-04-25 19:26 | 17.01001 | -24.51634 | 36982 ft | 515 kts | 121° |
| 2026-04-25 19:27 | 16.98697 | -24.47299 | 36960 ft | 515 kts | 121° |
| 2026-04-25 19:27 | 16.94060 | -24.38586 | 36972 ft | 516 kts | 121° |
| 2026-04-25 19:28 | 16.90573 | -24.32041 | 36966 ft | 516 kts | 121° |
| 2026-04-25 19:28 | 16.87085 | -24.25501 | 36965 ft | 515 kts | 121° |
| 2026-04-25 19:29 | 16.83604 | -24.18980 | 36969 ft | 514 kts | 121° |
| 2026-04-25 19:29 | 16.80125 | -24.12470 | 36974 ft | 514 kts | 121° |
| 2026-04-25 19:30 | 16.76645 | -24.05963 | 36972 ft | 514 kts | 121° |
| 2026-04-25 19:30 | 16.73160 | -23.99454 | 36976 ft | 514 kts | 121° |
| 2026-04-25 19:31 | 16.70262 | -23.94046 | 36976 ft | 514 kts | 121° |
| 2026-04-25 19:31 | 16.66775 | -23.87543 | 36969 ft | 514 kts | 121° |
| 2026-04-25 19:32 | 16.63286 | -23.81043 | 36969 ft | 514 kts | 121° |
| 2026-04-25 19:32 | 16.60362 | -23.75601 | 36969 ft | 514 kts | 121° |
| 2026-04-25 19:33 | 16.56304 | -23.68055 | 36963 ft | 513 kts | 121° |
| 2026-04-25 19:33 | 16.52813 | -23.61568 | 36961 ft | 513 kts | 121° |
| 2026-04-25 19:34 | 16.49321 | -23.55088 | 36961 ft | 513 kts | 121° |
| 2026-04-25 19:34 | 16.45826 | -23.48607 | 36951 ft | 513 kts | 122° |
| 2026-04-25 19:35 | 16.42330 | -23.42131 | 36956 ft | 513 kts | 122° |
| 2026-04-25 19:35 | 16.38828 | -23.35651 | 36946 ft | 513 kts | 122° |
| 2026-04-25 19:36 | 16.35329 | -23.29180 | 36949 ft | 512 kts | 122° |
| 2026-04-25 19:36 | 16.31839 | -23.22733 | 36952 ft | 511 kts | 122° |
| 2026-04-25 19:37 | 16.28349 | -23.16293 | 36953 ft | 511 kts | 122° |
| 2026-04-25 19:37 | 16.24859 | -23.09857 | 36956 ft | 511 kts | 122° |
| 2026-04-25 19:38 | 16.21365 | -23.03420 | 36954 ft | 511 kts | 122° |
| 2026-04-25 19:38 | 16.17870 | -22.96988 | 36941 ft | 511 kts | 122° |
| 2026-04-25 19:39 | 16.14369 | -22.90548 | 36940 ft | 511 kts | 122° |
| 2026-04-25 19:39 | 16.10901 | -22.84099 | 36942 ft | 511 kts | 121° |
| 2026-04-25 19:40 | 16.07475 | -22.77632 | 36939 ft | 509 kts | 121° |
| 2026-04-25 19:40 | 16.04059 | -22.71182 | 36954 ft | 509 kts | 121° |
| 2026-04-25 19:41 | 16.00634 | -22.64738 | 36945 ft | 509 kts | 121° |
| 2026-04-25 19:41 | 15.97785 | -22.59385 | 36946 ft | 509 kts | 121° |
| 2026-04-25 19:42 | 15.93798 | -22.51904 | 36954 ft | 509 kts | 121° |
| 2026-04-25 19:42 | 15.90365 | -22.45467 | 36947 ft | 509 kts | 121° |
| 2026-04-25 19:43 | 15.86930 | -22.39033 | 36948 ft | 509 kts | 121° |
| 2026-04-25 19:43 | 15.83493 | -22.32600 | 36932 ft | 509 kts | 121° |
| 2026-04-25 19:44 | 15.80056 | -22.26172 | 36946 ft | 509 kts | 121° |
| 2026-04-25 19:44 | 15.76623 | -22.19758 | 36949 ft | 508 kts | 121° |
| 2026-04-25 19:45 | 15.73190 | -22.13349 | 36942 ft | 508 kts | 121° |
| 2026-04-25 19:45 | 15.69753 | -22.06939 | 36939 ft | 508 kts | 121° |
| 2026-04-25 19:46 | 15.66315 | -22.00534 | 36946 ft | 508 kts | 121° |
| 2026-04-25 19:46 | 15.62876 | -21.94132 | 36946 ft | 508 kts | 121° |
| 2026-04-25 19:47 | 15.59434 | -21.87729 | 36946 ft | 508 kts | 121° |
| 2026-04-25 19:47 | 15.55990 | -21.81328 | 36925 ft | 508 kts | 121° |
| 2026-04-25 19:48 | 15.52548 | -21.74938 | 36938 ft | 507 kts | 121° |
| 2026-04-25 19:48 | 15.49109 | -21.68557 | 36935 ft | 507 kts | 121° |
| 2026-04-25 19:49 | 15.46249 | -21.63255 | 36938 ft | 507 kts | 121° |
| 2026-04-25 19:49 | 15.42225 | -21.55802 | 36932 ft | 507 kts | 121° |
| 2026-04-25 19:50 | 15.37056 | -21.46240 | 36941 ft | 507 kts | 121° |
| 2026-04-25 19:51 | 15.33607 | -21.39867 | 36931 ft | 507 kts | 121° |
| 2026-04-25 19:51 | 15.30156 | -21.33494 | 36933 ft | 507 kts | 121° |
| 2026-04-25 19:52 | 15.26703 | -21.27124 | 36932 ft | 507 kts | 121° |
| 2026-04-25 19:52 | 15.23259 | -21.20774 | 36928 ft | 505 kts | 121° |
| 2026-04-25 19:53 | 15.19821 | -21.14442 | 36934 ft | 504 kts | 121° |
| 2026-04-25 19:53 | 15.16386 | -21.08122 | 36918 ft | 504 kts | 121° |
| 2026-04-25 19:54 | 15.12973 | -21.01846 | 36929 ft | 503 kts | 121° |
| 2026-04-25 19:54 | 15.09512 | -20.95489 | 36930 ft | 504 kts | 121° |
| 2026-04-25 19:55 | 15.06074 | -20.89177 | 36927 ft | 504 kts | 121° |
| 2026-04-25 19:55 | 15.02654 | -20.82905 | 36917 ft | 504 kts | 121° |
| 2026-04-25 19:56 | 14.99189 | -20.76555 | 36927 ft | 503 kts | 121° |
| 2026-04-25 19:56 | 14.95776 | -20.70305 | 36927 ft | 501 kts | 121° |
| 2026-04-25 19:57 | 14.92346 | -20.64030 | 36919 ft | 501 kts | 121° |
| 2026-04-25 19:57 | 14.88916 | -20.57760 | 36914 ft | 501 kts | 121° |
| 2026-04-25 19:58 | 14.85483 | -20.51490 | 36924 ft | 501 kts | 121° |
| 2026-04-25 19:58 | 14.82048 | -20.45220 | 36916 ft | 501 kts | 121° |
| 2026-04-25 19:59 | 14.78616 | -20.38962 | 36910 ft | 500 kts | 121° |
| 2026-04-25 19:59 | 14.75182 | -20.32704 | 36917 ft | 500 kts | 121° |
| 2026-04-25 20:00 | 14.71749 | -20.26454 | 36920 ft | 500 kts | 121° |
| 2026-04-25 20:00 | 14.68598 | -20.20057 | 36913 ft | 501 kts | 111° |
| 2026-04-25 20:01 | 14.65227 | -20.09854 | 36911 ft | 500 kts | 109° |
| 2026-04-25 20:01 | 14.63035 | -20.03032 | 36911 ft | 501 kts | 109° |
| 2026-04-25 20:02 | 14.60845 | -19.96207 | 36912 ft | 501 kts | 109° |
| 2026-04-25 20:02 | 14.58653 | -19.89383 | 36905 ft | 501 kts | 109° |
| 2026-04-25 20:03 | 14.56460 | -19.82561 | 36906 ft | 501 kts | 109° |
| 2026-04-25 20:03 | 14.54280 | -19.75787 | 36912 ft | 501 kts | 109° |
| 2026-04-25 20:04 | 14.52083 | -19.68968 | 36903 ft | 501 kts | 109° |
| 2026-04-25 20:04 | 14.49884 | -19.62150 | 36904 ft | 501 kts | 109° |
| 2026-04-25 20:05 | 14.47684 | -19.55336 | 36910 ft | 501 kts | 109° |
| 2026-04-25 20:05 | 14.45483 | -19.48526 | 36906 ft | 501 kts | 109° |
| 2026-04-25 20:06 | 14.43279 | -19.41716 | 36904 ft | 499 kts | 109° |
| 2026-04-25 20:06 | 14.41081 | -19.34931 | 36900 ft | 499 kts | 109° |
| 2026-04-25 20:07 | 14.38882 | -19.28147 | 36895 ft | 499 kts | 109° |
| 2026-04-25 20:07 | 14.36680 | -19.21367 | 36897 ft | 499 kts | 109° |
| 2026-04-25 20:08 | 14.34478 | -19.14589 | 36896 ft | 499 kts | 109° |
| 2026-04-25 20:08 | 14.32272 | -19.07809 | 36892 ft | 498 kts | 109° |
| 2026-04-25 20:09 | 14.30067 | -19.01039 | 36894 ft | 498 kts | 109° |
| 2026-04-25 20:09 | 14.27862 | -18.94273 | 36889 ft | 498 kts | 109° |
| 2026-04-25 20:10 | 14.25669 | -18.87553 | 36889 ft | 498 kts | 109° |
| 2026-04-25 20:10 | 14.23459 | -18.80791 | 36883 ft | 498 kts | 109° |
| 2026-04-25 20:11 | 14.21235 | -18.73990 | 36683 ft | 495 kts | 109° |
| 2026-04-25 20:11 | 14.20135 | -18.70629 | 36442 ft | 495 kts | 109° |
| 2026-04-25 20:11 | 14.19035 | -18.67269 | 36076 ft | 495 kts | 109° |
| 2026-04-25 20:12 | 14.17935 | -18.63913 | 35585 ft | 493 kts | 109° |
| 2026-04-25 20:12 | 14.16840 | -18.60573 | 34986 ft | 490 kts | 108° |
| 2026-04-25 20:12 | 14.15753 | -18.57259 | 34397 ft | 487 kts | 108° |
| 2026-04-25 20:12 | 14.15402 | -18.56189 | 34225 ft | 485 kts | 108° |
| 2026-04-25 20:13 | 14.13600 | -18.50701 | 33204 ft | 480 kts | 108° |
| 2026-04-25 20:13 | 14.12535 | -18.47459 | 32582 ft | 476 kts | 108° |
| 2026-04-25 20:13 | 14.11491 | -18.44283 | 31975 ft | 473 kts | 108° |
| 2026-04-25 20:13 | 14.10437 | -18.41077 | 31377 ft | 475 kts | 107° |
| 2026-04-25 20:14 | 14.09360 | -18.37801 | 30672 ft | 489 kts | 107° |
| 2026-04-25 20:14 | 14.08262 | -18.34461 | 29983 ft | 494 kts | 107° |
| 2026-04-25 20:14 | 14.07161 | -18.31121 | 29192 ft | 490 kts | 107° |
| 2026-04-25 20:14 | 14.06070 | -18.27811 | 28423 ft | 485 kts | 107° |
| 2026-04-25 20:15 | 14.04991 | -18.24537 | 27663 ft | 480 kts | 107° |
| 2026-04-25 20:15 | 14.03921 | -18.21296 | 26928 ft | 475 kts | 108° |
| 2026-04-25 20:15 | 14.02864 | -18.18091 | 26214 ft | 471 kts | 108° |
| 2026-04-25 20:15 | 14.01816 | -18.14917 | 25514 ft | 466 kts | 108° |
| 2026-04-25 20:16 | 14.00779 | -18.11776 | 24867 ft | 460 kts | 108° |
| 2026-04-25 20:16 | 13.99757 | -18.08684 | 24325 ft | 453 kts | 108° |
| 2026-04-25 20:16 | 13.98765 | -18.05631 | 23786 ft | 446 kts | 106° |
| 2026-04-25 20:16 | 13.98192 | -18.02534 | 23309 ft | 436 kts | 92° |
| 2026-04-25 20:17 | 13.98432 | -17.99467 | 22788 ft | 426 kts | 75° |
| 2026-04-25 20:17 | 13.99472 | -17.96657 | 22289 ft | 417 kts | 59° |
| 2026-04-25 20:17 | 14.01065 | -17.94201 | 21799 ft | 409 kts | 51° |
| 2026-04-25 20:17 | 14.02772 | -17.91877 | 21315 ft | 405 kts | 51° |
| 2026-04-25 20:18 | 14.04482 | -17.89575 | 20833 ft | 404 kts | 50° |
| 2026-04-25 20:18 | 14.06183 | -17.87275 | 20355 ft | 403 kts | 51° |
| 2026-04-25 20:18 | 14.07871 | -17.84982 | 19873 ft | 401 kts | 51° |
| 2026-04-25 20:18 | 14.09549 | -17.82693 | 19435 ft | 399 kts | 51° |
| 2026-04-25 20:19 | 14.10655 | -17.81184 | 19126 ft | 398 kts | 51° |
| 2026-04-25 20:19 | 14.12315 | -17.78915 | 18677 ft | 396 kts | 51° |
| 2026-04-25 20:19 | 14.13966 | -17.76655 | 18231 ft | 394 kts | 51° |
| 2026-04-25 20:19 | 14.16162 | -17.73649 | 17561 ft | 391 kts | 51° |
| 2026-04-25 20:20 | 14.17790 | -17.71419 | 17057 ft | 388 kts | 51° |
| 2026-04-25 20:20 | 14.18863 | -17.69949 | 16727 ft | 386 kts | 51° |
| 2026-04-25 20:20 | 14.20472 | -17.67744 | 16223 ft | 384 kts | 52° |
| 2026-04-25 20:20 | 14.22069 | -17.65555 | 15929 ft | 380 kts | 52° |
| 2026-04-25 20:21 | 14.23653 | -17.63383 | 15863 ft | 379 kts | 52° |
| 2026-04-25 20:21 | 14.25237 | -17.61210 | 15862 ft | 379 kts | 52° |
| 2026-04-25 20:21 | 14.26821 | -17.59037 | 15856 ft | 379 kts | 51° |
| 2026-04-25 20:21 | 14.28392 | -17.56880 | 15854 ft | 372 kts | 51° |
| 2026-04-25 20:22 | 14.29933 | -17.54764 | 15860 ft | 367 kts | 52° |
| 2026-04-25 20:22 | 14.30947 | -17.53371 | 15859 ft | 366 kts | 51° |
| 2026-04-25 20:22 | 14.32993 | -17.50563 | 15856 ft | 366 kts | 52° |
| 2026-04-25 20:22 | 14.34522 | -17.48462 | 15860 ft | 366 kts | 51° |
| 2026-04-25 20:23 | 14.36053 | -17.46358 | 15848 ft | 366 kts | 52° |
| 2026-04-25 20:23 | 14.37581 | -17.44258 | 15853 ft | 366 kts | 51° |
| 2026-04-25 20:23 | 14.39108 | -17.42158 | 15856 ft | 364 kts | 51° |
| 2026-04-25 20:23 | 14.40611 | -17.40090 | 15856 ft | 357 kts | 52° |
| 2026-04-25 20:24 | 14.42017 | -17.37997 | 15841 ft | 355 kts | 61° |
| 2026-04-25 20:24 | 14.42754 | -17.35577 | 15852 ft | 355 kts | 83° |
| 2026-04-25 20:24 | 14.42601 | -17.33055 | 15851 ft | 353 kts | 106° |
| 2026-04-25 20:24 | 14.41590 | -17.30776 | 15852 ft | 350 kts | 127° |
| 2026-04-25 20:25 | 14.40070 | -17.28828 | 15855 ft | 348 kts | 133° |
| 2026-04-25 20:25 | 14.38469 | -17.26951 | 15847 ft | 349 kts | 134° |
| 2026-04-25 20:25 | 14.36858 | -17.25080 | 15841 ft | 349 kts | 134° |
| 2026-04-25 20:25 | 14.35242 | -17.23214 | 15847 ft | 348 kts | 135° |
| 2026-04-25 20:26 | 14.33377 | -17.21670 | 15844 ft | 343 kts | 155° |
| 2026-04-25 20:26 | 14.31140 | -17.20946 | 15845 ft | 336 kts | 177° |
| 2026-04-25 20:26 | 14.28848 | -17.21131 | 15854 ft | 329 kts | 197° |
| 2026-04-25 20:26 | 14.26688 | -17.21886 | 15752 ft | 328 kts | 203° |
| 2026-04-25 20:27 | 14.24564 | -17.22733 | 15457 ft | 327 kts | 204° |
| 2026-04-25 20:27 | 14.22453 | -17.23583 | 15180 ft | 325 kts | 204° |
| 2026-04-25 20:27 | 14.20358 | -17.24437 | 14916 ft | 323 kts | 204° |
| 2026-04-25 20:27 | 14.18275 | -17.25301 | 14474 ft | 323 kts | 204° |
| 2026-04-25 20:28 | 14.16235 | -17.26147 | 14139 ft | 317 kts | 204° |
| 2026-04-25 20:28 | 14.14217 | -17.26982 | 13922 ft | 307 kts | 204° |
| 2026-04-25 20:28 | 14.12256 | -17.27804 | 13552 ft | 303 kts | 204° |
| 2026-04-25 20:28 | 14.10322 | -17.28628 | 13175 ft | 298 kts | 204° |
| 2026-04-25 20:29 | 14.08430 | -17.29438 | 12803 ft | 290 kts | 204° |
| 2026-04-25 20:29 | 14.06599 | -17.30223 | 12505 ft | 280 kts | 204° |
| 2026-04-25 20:29 | 14.04825 | -17.30983 | 12188 ft | 272 kts | 204° |
| 2026-04-25 20:29 | 14.03092 | -17.31738 | 11933 ft | 269 kts | 204° |
| 2026-04-25 20:30 | 14.01366 | -17.32500 | 11685 ft | 271 kts | 204° |
| 2026-04-25 20:30 | 13.99639 | -17.33268 | 11464 ft | 270 kts | 204° |
| 2026-04-25 20:30 | 13.97922 | -17.34037 | 11225 ft | 268 kts | 204° |
| 2026-04-25 20:30 | 13.96215 | -17.34806 | 10987 ft | 267 kts | 204° |
| 2026-04-25 20:31 | 13.94520 | -17.35575 | 10874 ft | 266 kts | 204° |
| 2026-04-25 20:31 | 13.92822 | -17.36348 | 10858 ft | 267 kts | 204° |
| 2026-04-25 20:31 | 13.91114 | -17.37124 | 10862 ft | 269 kts | 204° |
| 2026-04-25 20:31 | 13.89403 | -17.37902 | 10857 ft | 268 kts | 204° |
| 2026-04-25 20:32 | 13.87698 | -17.38677 | 10860 ft | 267 kts | 204° |
| 2026-04-25 20:32 | 13.86002 | -17.39448 | 10855 ft | 266 kts | 204° |
| 2026-04-25 20:32 | 13.84304 | -17.40220 | 10859 ft | 267 kts | 204° |
| 2026-04-25 20:32 | 13.82605 | -17.40989 | 10855 ft | 267 kts | 204° |
| 2026-04-25 20:33 | 13.80834 | -17.41564 | 10856 ft | 268 kts | 188° |
| 2026-04-25 20:33 | 13.78978 | -17.41498 | 10839 ft | 269 kts | 167° |
| 2026-04-25 20:33 | 13.77283 | -17.40681 | 10560 ft | 274 kts | 143° |
| 2026-04-25 20:33 | 13.76437 | -17.39720 | 10346 ft | 275 kts | 123° |
| 2026-04-25 20:34 | 13.75801 | -17.37207 | 9956 ft | 276 kts | 87° |
| 2026-04-25 20:34 | 13.76347 | -17.35331 | 9656 ft | 277 kts | 61° |
| 2026-04-25 20:34 | 13.77651 | -17.33891 | 9293 ft | 278 kts | 34° |
| 2026-04-25 20:34 | 13.79365 | -17.32991 | 8997 ft | 275 kts | 24° |
| 2026-04-25 20:35 | 13.81122 | -17.32237 | 8696 ft | 272 kts | 22° |
| 2026-04-25 20:35 | 13.82867 | -17.31494 | 8366 ft | 270 kts | 22° |
| 2026-04-25 20:35 | 13.84590 | -17.30748 | 8058 ft | 267 kts | 23° |
| 2026-04-25 20:35 | 13.86293 | -17.30001 | 7763 ft | 265 kts | 23° |
| 2026-04-25 20:36 | 13.87975 | -17.29258 | 7530 ft | 261 kts | 23° |
| 2026-04-25 20:36 | 13.89646 | -17.28516 | 7389 ft | 262 kts | 23° |
| 2026-04-25 20:36 | 13.91318 | -17.27771 | 7207 ft | 261 kts | 23° |
| 2026-04-25 20:36 | 13.92981 | -17.27030 | 6975 ft | 260 kts | 22° |
| 2026-04-25 20:37 | 13.94632 | -17.26293 | 6739 ft | 258 kts | 22° |
| 2026-04-25 20:37 | 13.96273 | -17.25560 | 6514 ft | 256 kts | 22° |
| 2026-04-25 20:37 | 13.97899 | -17.24834 | 6285 ft | 253 kts | 22° |
| 2026-04-25 20:37 | 13.99490 | -17.24123 | 6062 ft | 252 kts | 22° |
| 2026-04-25 20:38 | 14.01113 | -17.23398 | 5998 ft | 250 kts | 22° |
| 2026-04-25 20:38 | 14.02685 | -17.22696 | 5991 ft | 248 kts | 22° |
| 2026-04-25 20:38 | 14.04271 | -17.21987 | 5993 ft | 249 kts | 22° |
| 2026-04-25 20:38 | 14.05879 | -17.21268 | 5991 ft | 256 kts | 22° |
| 2026-04-25 20:39 | 14.07526 | -17.20532 | 5987 ft | 259 kts | 22° |
| 2026-04-25 20:39 | 14.09184 | -17.19790 | 5982 ft | 260 kts | 22° |
| 2026-04-25 20:39 | 14.10857 | -17.19041 | 5585 ft | 265 kts | 22° |
| 2026-04-25 20:39 | 14.11993 | -17.18532 | 5410 ft | 260 kts | 22° |
| 2026-04-25 20:40 | 14.14153 | -17.17564 | 5030 ft | 253 kts | 22° |
| 2026-04-25 20:40 | 14.15767 | -17.16842 | 4678 ft | 252 kts | 22° |
| 2026-04-25 20:40 | 14.17359 | -17.16129 | 4379 ft | 248 kts | 22° |
| 2026-04-25 20:40 | 14.18941 | -17.15421 | 4062 ft | 247 kts | 22° |
| 2026-04-25 20:41 | 14.20518 | -17.14716 | 3994 ft | 248 kts | 22° |
| 2026-04-25 20:41 | 14.22095 | -17.14010 | 3990 ft | 246 kts | 22° |
| 2026-04-25 20:41 | 14.23670 | -17.13305 | 3988 ft | 247 kts | 22° |
| 2026-04-25 20:41 | 14.25251 | -17.12597 | 3988 ft | 248 kts | 22° |
| 2026-04-25 20:42 | 14.26833 | -17.11888 | 3987 ft | 248 kts | 22° |
| 2026-04-25 20:42 | 14.28412 | -17.11180 | 3987 ft | 248 kts | 22° |
| 2026-04-25 20:42 | 14.29997 | -17.10470 | 3989 ft | 249 kts | 22° |
| 2026-04-25 20:42 | 14.31583 | -17.09759 | 3990 ft | 248 kts | 22° |
| 2026-04-25 20:43 | 14.33158 | -17.09053 | 4014 ft | 245 kts | 22° |
| 2026-04-25 20:43 | 14.34708 | -17.08357 | 4003 ft | 240 kts | 22° |
| 2026-04-25 20:43 | 14.36228 | -17.07675 | 3993 ft | 237 kts | 21° |
| 2026-04-25 20:43 | 14.37791 | -17.07162 | 3992 ft | 236 kts | 10° |
| 2026-04-25 20:44 | 14.39422 | -17.06993 | 3992 ft | 236 kts | 1° |
| 2026-04-25 20:44 | 14.41059 | -17.07014 | 3994 ft | 235 kts | 359° |
| 2026-04-25 20:44 | 14.42696 | -17.07047 | 3992 ft | 235 kts | 359° |
| 2026-04-25 20:44 | 14.44331 | -17.07070 | 3989 ft | 235 kts | 359° |
| 2026-04-25 20:45 | 14.45960 | -17.07088 | 3948 ft | 229 kts | 360° |
| 2026-04-25 20:45 | 14.47499 | -17.07099 | 3728 ft | 216 kts | 360° |
| 2026-04-25 20:45 | 14.48981 | -17.07111 | 3419 ft | 212 kts | 360° |
| 2026-04-25 20:45 | 14.50448 | -17.07126 | 3106 ft | 211 kts | 0° |
| 2026-04-25 20:46 | 14.51913 | -17.07139 | 2824 ft | 209 kts | 0° |
| 2026-04-25 20:46 | 14.53350 | -17.07153 | 2570 ft | 203 kts | 0° |
| 2026-04-25 20:46 | 14.54729 | -17.07166 | 2306 ft | 194 kts | 360° |
| 2026-04-25 20:46 | 14.56044 | -17.07179 | 2069 ft | 185 kts | 0° |
| 2026-04-25 20:47 | 14.57304 | -17.07191 | 1861 ft | 176 kts | 1° |
| 2026-04-25 20:47 | 14.58474 | -17.07202 | 1632 ft | 161 kts | 0° |
| 2026-04-25 20:47 | 14.59545 | -17.07212 | 1420 ft | 146 kts | 0° |
| 2026-04-25 20:47 | 14.60495 | -17.07221 | 1248 ft | 127 kts | 1° |
| 2026-04-25 20:48 | 14.61328 | -17.07229 | 1106 ft | 114 kts | 0° |
| 2026-04-25 20:48 | 14.62106 | -17.07226 | 913 ft | 110 kts | 359° |
| 2026-04-25 20:48 | 14.62857 | -17.07214 | 766 ft | 108 kts | 357° |
| 2026-04-25 20:48 | 14.63630 | -17.07250 | 729 ft | 114 kts | 357° |
| 2026-04-25 20:49 | 14.64426 | -17.07255 | 580 ft | 115 kts | 356° |
| 2026-04-25 20:49 | 14.65224 | -17.07267 | 373 ft | 112 kts | 359° |
| 2026-04-25 20:49 | 14.65968 | -17.07275 | 293 ft | 97 kts | 359° |
| 2026-04-25 20:49 | 14.66552 | -17.07278 | 304 ft | 73 kts | 360° |
| 2026-04-25 20:50 | 14.66990 | -17.07280 | 307 ft | 49 kts | 7° |
| 2026-04-25 20:50 | 14.67076 | -17.07183 | 306 ft | 15 kts | 90° |
| 2026-04-25 20:50 | 14.67076 | -17.07159 | 305 ft | 0 kts | 91° |
| 2026-04-25 20:50 | 14.67076 | -17.07151 | 305 ft | 2 kts | 90° |
| 2026-04-25 20:51 | 14.67076 | -17.07134 | 305 ft | 3 kts | 90° |
| 2026-04-25 20:51 | 14.67064 | -17.07106 | 306 ft | 10 kts | 134° |
| 2026-04-25 20:51 | 14.66948 | -17.07091 | 304 ft | 20 kts | 180° |
| 2026-04-25 20:51 | 14.66812 | -17.07089 | 304 ft | 19 kts | 179° |
| 2026-04-25 20:52 | 14.66691 | -17.07081 | 305 ft | 14 kts | 154° |
| 2026-04-25 20:52 | 14.66665 | -17.07026 | 301 ft | 13 kts | 95° |
| 2026-04-25 20:52 | 14.66663 | -17.06995 | 302 ft | 0 kts | 91° |
| 2026-04-25 20:52 | 14.66663 | -17.06964 | 302 ft | 10 kts | 91° |
| 2026-04-25 20:53 | 14.66664 | -17.06895 | 302 ft | 9 kts | 88° |
| 2026-04-25 20:53 | 14.66655 | -17.06862 | 300 ft | 2 kts | 138° |
| 2026-04-25 20:53 | 14.66633 | -17.06854 | 299 ft | 3 kts | 167° |
| 2026-04-25 20:53 | 14.66602 | -17.06852 | 300 ft | 5 kts | 178° |
| 2026-04-25 20:54 | 14.66592 | -17.06852 | 302 ft | 1 kts | 179° |
| 2026-04-25 20:54 | 14.66588 | -17.06852 | 302 ft | 0 kts | 179° |